<?xml version='1.0' encoding='UTF-8'?><gpx version="1.1" creator="JPX - https://github.com/jenetics/jpx" xmlns="http://www.topografix.com/GPX/1/1"><trk><trkseg><trkpt lat="43.7744763" lon="11.2623678"><ele>56.00000000000001</ele><time>2026-04-27T12:42:48.002Z</time></trkpt><trkpt lat="43.7744411" lon="11.2624618"><ele>56.0</ele><time>2026-04-27T12:42:53.002Z</time></trkpt><trkpt lat="43.7744467" lon="11.26237"><ele>56.0</ele><time>2026-04-27T12:43:06.976Z</time></trkpt><trkpt lat="43.7743883" lon="11.2623233"><ele>56.0</ele><time>2026-04-27T12:43:15.976Z</time></trkpt><trkpt lat="43.7743233" lon="11.2622883"><ele>56.00000000000001</ele><time>2026-04-27T12:43:18.977Z</time></trkpt><trkpt lat="43.7742283" lon="11.2622167"><ele>56.0</ele><time>2026-04-27T12:43:23.976Z</time></trkpt><trkpt lat="43.7741583" lon="11.2621467"><ele>55.833333333333336</ele><time>2026-04-27T12:43:26.976Z</time></trkpt><trkpt lat="43.7740767" lon="11.2620983"><ele>55.66666666666667</ele><time>2026-04-27T12:43:30.976Z</time></trkpt><trkpt lat="43.77399" lon="11.26207"><ele>55.5</ele><time>2026-04-27T12:43:33.976Z</time></trkpt><trkpt lat="43.7739233" lon="11.2620467"><ele>55.33333333333333</ele><time>2026-04-27T12:43:35.976Z</time></trkpt><trkpt lat="43.77385" lon="11.2620667"><ele>55.166666666666664</ele><time>2026-04-27T12:43:37.976Z</time></trkpt><trkpt lat="43.7737833" lon="11.26205"><ele>55.0</ele><time>2026-04-27T12:43:39.976Z</time></trkpt><trkpt lat="43.7737367" lon="11.2619883"><ele>55.0</ele><time>2026-04-27T12:43:41.976Z</time></trkpt><trkpt lat="43.7736967" lon="11.2619133"><ele>55.0</ele><time>2026-04-27T12:43:43.976Z</time></trkpt><trkpt lat="43.7736017" lon="11.2617633"><ele>55.0</ele><time>2026-04-27T12:43:47.976Z</time></trkpt><trkpt lat="43.7735467" lon="11.2617017"><ele>55.0</ele><time>2026-04-27T12:43:49.976Z</time></trkpt><trkpt lat="43.7735017" lon="11.2616283"><ele>55.0</ele><time>2026-04-27T12:43:51.976Z</time></trkpt><trkpt lat="43.77343" lon="11.2614917"><ele>54.99999999999999</ele><time>2026-04-27T12:43:57.976Z</time></trkpt><trkpt lat="43.773385" lon="11.2614217"><ele>55.0</ele><time>2026-04-27T12:43:59.976Z</time></trkpt><trkpt lat="43.77334" lon="11.2613583"><ele>55.0</ele><time>2026-04-27T12:44:02.976Z</time></trkpt><trkpt lat="43.7732717" lon="11.2613283"><ele>55.0</ele><time>2026-04-27T12:44:10.976Z</time></trkpt><trkpt lat="43.7732783" lon="11.2612367"><ele>55.0</ele><time>2026-04-27T12:44:16.976Z</time></trkpt><trkpt lat="43.77333" lon="11.26118"><ele>54.99999999999999</ele><time>2026-04-27T12:45:36.975Z</time></trkpt><trkpt lat="43.773355" lon="11.261085"><ele>55.0</ele><time>2026-04-27T12:45:49.975Z</time></trkpt><trkpt lat="43.7733" lon="11.2610183"><ele>54.99999999999999</ele><time>2026-04-27T12:45:56.975Z</time></trkpt><trkpt lat="43.773295" lon="11.26093"><ele>55.0</ele><time>2026-04-27T12:46:02.975Z</time></trkpt><trkpt lat="43.7732417" lon="11.260845"><ele>55.0</ele><time>2026-04-27T12:46:06.975Z</time></trkpt><trkpt lat="43.77315" lon="11.26081"><ele>55.0</ele><time>2026-04-27T12:46:10.975Z</time></trkpt><trkpt lat="43.7730817" lon="11.2607733"><ele>55.0</ele><time>2026-04-27T12:46:12.975Z</time></trkpt><trkpt lat="43.773025" lon="11.260725"><ele>54.99999999999999</ele><time>2026-04-27T12:46:15.975Z</time></trkpt><trkpt lat="43.7729833" lon="11.2606567"><ele>55.0</ele><time>2026-04-27T12:46:18.975Z</time></trkpt><trkpt lat="43.773" lon="11.2605083"><ele>54.99999999999999</ele><time>2026-04-27T12:46:28.976Z</time></trkpt><trkpt lat="43.7730033" lon="11.260405"><ele>55.0</ele><time>2026-04-27T12:46:31.975Z</time></trkpt><trkpt lat="43.77303" lon="11.2602983"><ele>55.0</ele><time>2026-04-27T12:46:34.975Z</time></trkpt><trkpt lat="43.7730583" lon="11.2602133"><ele>55.0</ele><time>2026-04-27T12:46:36.975Z</time></trkpt><trkpt lat="43.7730833" lon="11.26013"><ele>54.99999999999999</ele><time>2026-04-27T12:46:38.975Z</time></trkpt><trkpt lat="43.7731133" lon="11.2600117"><ele>55.0</ele><time>2026-04-27T12:46:41.975Z</time></trkpt><trkpt lat="43.7731433" lon="11.2598883"><ele>54.99999999999999</ele><time>2026-04-27T12:46:44.975Z</time></trkpt><trkpt lat="43.7731933" lon="11.25981"><ele>55.0</ele><time>2026-04-27T12:46:46.976Z</time></trkpt><trkpt lat="43.7732083" lon="11.259715"><ele>55.0</ele><time>2026-04-27T12:46:48.976Z</time></trkpt><trkpt lat="43.7732467" lon="11.2596133"><ele>55.0</ele><time>2026-04-27T12:46:50.975Z</time></trkpt><trkpt lat="43.7732917" lon="11.259515"><ele>54.99999999999999</ele><time>2026-04-27T12:46:52.975Z</time></trkpt><trkpt lat="43.7733133" lon="11.2594033"><ele>55.0</ele><time>2026-04-27T12:46:54.975Z</time></trkpt><trkpt lat="43.7733483" lon="11.2593067"><ele>55.42857142857142</ele><time>2026-04-27T12:46:56.975Z</time></trkpt><trkpt lat="43.7733517" lon="11.25919"><ele>55.85714285714286</ele><time>2026-04-27T12:46:58.975Z</time></trkpt><trkpt lat="43.77339" lon="11.259105"><ele>56.28571428571429</ele><time>2026-04-27T12:47:00.975Z</time></trkpt><trkpt lat="43.7734117" lon="11.2590217"><ele>56.714285714285715</ele><time>2026-04-27T12:47:02.975Z</time></trkpt><trkpt lat="43.7734333" lon="11.2589167"><ele>57.142857142857146</ele><time>2026-04-27T12:47:05.975Z</time></trkpt><trkpt lat="43.773475" lon="11.2588417"><ele>57.57142857142858</ele><time>2026-04-27T12:47:07.975Z</time></trkpt><trkpt lat="43.773535" lon="11.25881"><ele>58.00000000000001</ele><time>2026-04-27T12:47:09.975Z</time></trkpt><trkpt lat="43.7736067" lon="11.25877"><ele>58.33333333333333</ele><time>2026-04-27T12:47:11.975Z</time></trkpt><trkpt lat="43.7736717" lon="11.25873"><ele>58.666666666666664</ele><time>2026-04-27T12:47:13.976Z</time></trkpt><trkpt lat="43.7737183" lon="11.25865"><ele>59.0</ele><time>2026-04-27T12:47:15.975Z</time></trkpt><trkpt lat="43.773765" lon="11.2585783"><ele>59.33333333333333</ele><time>2026-04-27T12:47:17.975Z</time></trkpt><trkpt lat="43.7738083" lon="11.2585133"><ele>59.666666666666664</ele><time>2026-04-27T12:47:19.975Z</time></trkpt><trkpt lat="43.7738683" lon="11.2584383"><ele>60.0</ele><time>2026-04-27T12:47:22.975Z</time></trkpt><trkpt lat="43.77395" lon="11.2583817"><ele>60.0</ele><time>2026-04-27T12:47:26.975Z</time></trkpt><trkpt lat="43.7740383" lon="11.258365"><ele>60.0</ele><time>2026-04-27T12:47:28.975Z</time></trkpt><trkpt lat="43.7741083" lon="11.2583267"><ele>60.0</ele><time>2026-04-27T12:47:30.975Z</time></trkpt><trkpt lat="43.77405" lon="11.2582117"><ele>60.0</ele><time>2026-04-27T12:47:34.975Z</time></trkpt><trkpt lat="43.7740167" lon="11.258125"><ele>60.0</ele><time>2026-04-27T12:47:38.975Z</time></trkpt><trkpt lat="43.7739983" lon="11.258035"><ele>60.0</ele><time>2026-04-27T12:47:40.976Z</time></trkpt><trkpt lat="43.773935" lon="11.2579967"><ele>60.4</ele><time>2026-04-27T12:47:42.975Z</time></trkpt><trkpt lat="43.7738733" lon="11.2579383"><ele>60.8</ele><time>2026-04-27T12:47:44.975Z</time></trkpt><trkpt lat="43.7737633" lon="11.2579117"><ele>61.2</ele><time>2026-04-27T12:47:47.975Z</time></trkpt><trkpt lat="43.7737033" lon="11.2578467"><ele>61.6</ele><time>2026-04-27T12:47:51.976Z</time></trkpt><trkpt lat="43.773645" lon="11.2578133"><ele>62.0</ele><time>2026-04-27T12:47:54.975Z</time></trkpt><trkpt lat="43.773515" lon="11.2577433"><ele>62.00000000000001</ele><time>2026-04-27T12:47:55.975Z</time></trkpt><trkpt lat="43.7735567" lon="11.2576517"><ele>62.0</ele><time>2026-04-27T12:47:57.975Z</time></trkpt><trkpt lat="43.7735783" lon="11.2575567"><ele>62.0</ele><time>2026-04-27T12:47:59.975Z</time></trkpt><trkpt lat="43.7736533" lon="11.2574667"><ele>62.0</ele><time>2026-04-27T12:48:01.975Z</time></trkpt><trkpt lat="43.7737367" lon="11.2574133"><ele>62.00000000000001</ele><time>2026-04-27T12:48:02.975Z</time></trkpt><trkpt lat="43.773805" lon="11.25737"><ele>62.0</ele><time>2026-04-27T12:48:04.975Z</time></trkpt><trkpt lat="43.773845" lon="11.25729"><ele>61.66666666666667</ele><time>2026-04-27T12:48:08.975Z</time></trkpt><trkpt lat="43.7738717" lon="11.2572033"><ele>61.333333333333336</ele><time>2026-04-27T12:48:11.975Z</time></trkpt><trkpt lat="43.7738633" lon="11.25711"><ele>61.0</ele><time>2026-04-27T12:48:13.975Z</time></trkpt><trkpt lat="43.773825" lon="11.25702"><ele>60.66666666666667</ele><time>2026-04-27T12:48:15.975Z</time></trkpt><trkpt lat="43.7737667" lon="11.2569533"><ele>60.333333333333336</ele><time>2026-04-27T12:48:16.975Z</time></trkpt><trkpt lat="43.77371" lon="11.2568567"><ele>60.0</ele><time>2026-04-27T12:48:18.975Z</time></trkpt><trkpt lat="43.77364" lon="11.2567283"><ele>60.0</ele><time>2026-04-27T12:48:21.975Z</time></trkpt><trkpt lat="43.77359" lon="11.2566367"><ele>60.0</ele><time>2026-04-27T12:48:23.975Z</time></trkpt><trkpt lat="43.77356" lon="11.25655"><ele>60.0</ele><time>2026-04-27T12:48:26.976Z</time></trkpt><trkpt lat="43.7735383" lon="11.2564467"><ele>60.0</ele><time>2026-04-27T12:48:31.975Z</time></trkpt><trkpt lat="43.7735067" lon="11.2563567"><ele>60.0</ele><time>2026-04-27T12:48:35.975Z</time></trkpt><trkpt lat="43.77351" lon="11.2562483"><ele>60.0</ele><time>2026-04-27T12:48:39.975Z</time></trkpt><trkpt lat="43.77346" lon="11.2561867"><ele>60.0</ele><time>2026-04-27T12:48:41.975Z</time></trkpt><trkpt lat="43.7734017" lon="11.2561117"><ele>58.833333333333336</ele><time>2026-04-27T12:48:43.975Z</time></trkpt><trkpt lat="43.7733617" lon="11.2560033"><ele>57.66666666666667</ele><time>2026-04-27T12:48:46.976Z</time></trkpt><trkpt lat="43.77332" lon="11.2559317"><ele>56.5</ele><time>2026-04-27T12:48:50.975Z</time></trkpt><trkpt lat="43.7733283" lon="11.2558333"><ele>55.333333333333336</ele><time>2026-04-27T12:48:55.975Z</time></trkpt><trkpt lat="43.77333" lon="11.2557317"><ele>54.16666666666667</ele><time>2026-04-27T12:49:01.975Z</time></trkpt><trkpt lat="43.7733933" lon="11.2556067"><ele>53.0</ele><time>2026-04-27T12:49:05.975Z</time></trkpt><trkpt lat="43.7734033" lon="11.2555083"><ele>52.85714285714286</ele><time>2026-04-27T12:49:12.975Z</time></trkpt><trkpt lat="43.7733683" lon="11.255435"><ele>52.71428571428571</ele><time>2026-04-27T12:49:16.975Z</time></trkpt><trkpt lat="43.773295" lon="11.2553917"><ele>52.57142857142857</ele><time>2026-04-27T12:49:18.975Z</time></trkpt><trkpt lat="43.7732317" lon="11.2554117"><ele>52.42857142857143</ele><time>2026-04-27T12:49:22.975Z</time></trkpt><trkpt lat="43.7731633" lon="11.2554233"><ele>52.28571428571429</ele><time>2026-04-27T12:49:27.975Z</time></trkpt><trkpt lat="43.7731017" lon="11.2553917"><ele>52.14285714285714</ele><time>2026-04-27T12:49:30.976Z</time></trkpt><trkpt lat="43.7730533" lon="11.255325"><ele>52.0</ele><time>2026-04-27T12:49:32.975Z</time></trkpt><trkpt lat="43.7730067" lon="11.2552383"><ele>51.99999999999999</ele><time>2026-04-27T12:49:34.975Z</time></trkpt><trkpt lat="43.7729517" lon="11.255125"><ele>52.0</ele><time>2026-04-27T12:49:37.976Z</time></trkpt><trkpt lat="43.7729467" lon="11.2550283"><ele>52.0</ele><time>2026-04-27T12:49:40.975Z</time></trkpt><trkpt lat="43.7729967" lon="11.2549517"><ele>52.0</ele><time>2026-04-27T12:49:43.976Z</time></trkpt><trkpt lat="43.7730567" lon="11.25488"><ele>51.99999999999999</ele><time>2026-04-27T12:49:47.976Z</time></trkpt><trkpt lat="43.7730333" lon="11.2547667"><ele>52.0</ele><time>2026-04-27T12:49:50.975Z</time></trkpt><trkpt lat="43.7729667" lon="11.2546683"><ele>52.83333333333333</ele><time>2026-04-27T12:49:52.975Z</time></trkpt><trkpt lat="43.7729183" lon="11.2545617"><ele>53.666666666666664</ele><time>2026-04-27T12:49:55.975Z</time></trkpt><trkpt lat="43.7728883" lon="11.25445"><ele>54.5</ele><time>2026-04-27T12:49:58.976Z</time></trkpt><trkpt lat="43.7728633" lon="11.2543417"><ele>55.33333333333333</ele><time>2026-04-27T12:50:01.975Z</time></trkpt><trkpt lat="43.77282" lon="11.2542167"><ele>56.166666666666664</ele><time>2026-04-27T12:50:04.975Z</time></trkpt><trkpt lat="43.772805" lon="11.2541283"><ele>57.0</ele><time>2026-04-27T12:50:06.975Z</time></trkpt><trkpt lat="43.7727883" lon="11.2540417"><ele>57.0</ele><time>2026-04-27T12:50:09.975Z</time></trkpt><trkpt lat="43.7727267" lon="11.2539817"><ele>57.0</ele><time>2026-04-27T12:50:11.975Z</time></trkpt><trkpt lat="43.7727233" lon="11.2538733"><ele>57.0</ele><time>2026-04-27T12:50:14.975Z</time></trkpt><trkpt lat="43.7727417" lon="11.2537717"><ele>57.0</ele><time>2026-04-27T12:50:17.975Z</time></trkpt><trkpt lat="43.7727067" lon="11.2536817"><ele>57.0</ele><time>2026-04-27T12:50:20.975Z</time></trkpt><trkpt lat="43.772745" lon="11.253595"><ele>57.0</ele><time>2026-04-27T12:50:23.976Z</time></trkpt><trkpt lat="43.7727333" lon="11.2534783"><ele>57.666666666666664</ele><time>2026-04-27T12:50:30.975Z</time></trkpt><trkpt lat="43.772785" lon="11.25332"><ele>58.33333333333333</ele><time>2026-04-27T12:50:44.975Z</time></trkpt><trkpt lat="43.772875" lon="11.2532867"><ele>59.0</ele><time>2026-04-27T12:50:47.976Z</time></trkpt><trkpt lat="43.7728733" lon="11.2531983"><ele>59.666666666666664</ele><time>2026-04-27T12:50:50.975Z</time></trkpt><trkpt lat="43.7728617" lon="11.25311"><ele>60.33333333333333</ele><time>2026-04-27T12:50:52.974Z</time></trkpt><trkpt lat="43.7728117" lon="11.25302"><ele>61.0</ele><time>2026-04-27T12:50:53.974Z</time></trkpt><trkpt lat="43.7728167" lon="11.252845"><ele>60.99999999999999</ele><time>2026-04-27T12:50:58.974Z</time></trkpt><trkpt lat="43.772795" lon="11.2527567"><ele>61.0</ele><time>2026-04-27T12:51:01.975Z</time></trkpt><trkpt lat="43.7727817" lon="11.2526483"><ele>61.0</ele><time>2026-04-27T12:51:03.975Z</time></trkpt><trkpt lat="43.7727667" lon="11.2525533"><ele>61.0</ele><time>2026-04-27T12:51:05.975Z</time></trkpt><trkpt lat="43.7727633" lon="11.2524317"><ele>60.99999999999999</ele><time>2026-04-27T12:51:08.974Z</time></trkpt><trkpt lat="43.772785" lon="11.2523383"><ele>61.0</ele><time>2026-04-27T12:51:10.974Z</time></trkpt><trkpt lat="43.7728067" lon="11.2522183"><ele>61.33333333333333</ele><time>2026-04-27T12:51:13.974Z</time></trkpt><trkpt lat="43.7728067" lon="11.2521283"><ele>61.666666666666664</ele><time>2026-04-27T12:51:15.974Z</time></trkpt><trkpt lat="43.77279" lon="11.2520433"><ele>62.0</ele><time>2026-04-27T12:51:17.974Z</time></trkpt><trkpt lat="43.7727567" lon="11.2519617"><ele>62.33333333333333</ele><time>2026-04-27T12:51:19.974Z</time></trkpt><trkpt lat="43.7727317" lon="11.2518467"><ele>62.666666666666664</ele><time>2026-04-27T12:51:22.975Z</time></trkpt><trkpt lat="43.7727517" lon="11.2517167"><ele>63.0</ele><time>2026-04-27T12:51:29.974Z</time></trkpt><trkpt lat="43.7728633" lon="11.2514833"><ele>63.0</ele><time>2026-04-27T12:51:30.974Z</time></trkpt><trkpt lat="43.7729483" lon="11.2514717"><ele>63.0</ele><time>2026-04-27T12:51:31.974Z</time></trkpt><trkpt lat="43.7729733" lon="11.251335"><ele>63.0</ele><time>2026-04-27T12:51:35.974Z</time></trkpt><trkpt lat="43.7729167" lon="11.2512117"><ele>63.0</ele><time>2026-04-27T12:51:37.974Z</time></trkpt><trkpt lat="43.77287" lon="11.2510933"><ele>63.0</ele><time>2026-04-27T12:51:39.974Z</time></trkpt><trkpt lat="43.772845" lon="11.2509833"><ele>62.666666666666664</ele><time>2026-04-27T12:51:41.974Z</time></trkpt><trkpt lat="43.7728683" lon="11.25085"><ele>62.33333333333333</ele><time>2026-04-27T12:51:44.974Z</time></trkpt><trkpt lat="43.7728867" lon="11.250755"><ele>62.0</ele><time>2026-04-27T12:51:47.974Z</time></trkpt><trkpt lat="43.772865" lon="11.2506333"><ele>61.666666666666664</ele><time>2026-04-27T12:51:50.974Z</time></trkpt><trkpt lat="43.772825" lon="11.2505417"><ele>61.33333333333333</ele><time>2026-04-27T12:51:51.974Z</time></trkpt><trkpt lat="43.7728667" lon="11.2504733"><ele>61.0</ele><time>2026-04-27T12:51:53.975Z</time></trkpt><trkpt lat="43.7729933" lon="11.25044"><ele>60.49999999999999</ele><time>2026-04-27T12:51:57.974Z</time></trkpt><trkpt lat="43.773035" lon="11.2503533"><ele>60.0</ele><time>2026-04-27T12:52:00.974Z</time></trkpt><trkpt lat="43.7729617" lon="11.2503333"><ele>59.5</ele><time>2026-04-27T12:52:04.974Z</time></trkpt><trkpt lat="43.7728833" lon="11.2503217"><ele>59.0</ele><time>2026-04-27T12:52:07.975Z</time></trkpt><trkpt lat="43.7727667" lon="11.2503167"><ele>58.49999999999999</ele><time>2026-04-27T12:52:09.975Z</time></trkpt><trkpt lat="43.77271" lon="11.25025"><ele>58.0</ele><time>2026-04-27T12:52:12.974Z</time></trkpt><trkpt lat="43.7726233" lon="11.25022"><ele>58.0</ele><time>2026-04-27T12:52:16.974Z</time></trkpt><trkpt lat="43.7725417" lon="11.2501867"><ele>58.0</ele><time>2026-04-27T12:52:19.974Z</time></trkpt><trkpt lat="43.772445" lon="11.250135"><ele>58.0</ele><time>2026-04-27T12:52:23.974Z</time></trkpt><trkpt lat="43.7724917" lon="11.2500217"><ele>58.0</ele><time>2026-04-27T12:52:24.974Z</time></trkpt><trkpt lat="43.7725217" lon="11.2499317"><ele>58.0</ele><time>2026-04-27T12:52:26.974Z</time></trkpt><trkpt lat="43.7727167" lon="11.2498867"><ele>57.33333333333333</ele><time>2026-04-27T12:52:31.974Z</time></trkpt><trkpt lat="43.772795" lon="11.2498317"><ele>56.666666666666664</ele><time>2026-04-27T12:52:34.974Z</time></trkpt><trkpt lat="43.7728583" lon="11.24981"><ele>56.0</ele><time>2026-04-27T12:52:36.974Z</time></trkpt><trkpt lat="43.77292" lon="11.249775"><ele>55.33333333333333</ele><time>2026-04-27T12:52:38.975Z</time></trkpt><trkpt lat="43.772895" lon="11.2496833"><ele>54.666666666666664</ele><time>2026-04-27T12:52:41.974Z</time></trkpt><trkpt lat="43.7728517" lon="11.2495633"><ele>54.0</ele><time>2026-04-27T12:52:44.974Z</time></trkpt><trkpt lat="43.7728117" lon="11.2494683"><ele>54.0</ele><time>2026-04-27T12:52:47.975Z</time></trkpt><trkpt lat="43.77272" lon="11.2493583"><ele>54.00000000000001</ele><time>2026-04-27T12:52:49.974Z</time></trkpt><trkpt lat="43.7726317" lon="11.2493183"><ele>54.00000000000001</ele><time>2026-04-27T12:52:51.974Z</time></trkpt><trkpt lat="43.77256" lon="11.2492717"><ele>54.0</ele><time>2026-04-27T12:52:54.974Z</time></trkpt><trkpt lat="43.772495" lon="11.249225"><ele>54.0</ele><time>2026-04-27T12:52:57.974Z</time></trkpt><trkpt lat="43.7724883" lon="11.249105"><ele>54.400000000000006</ele><time>2026-04-27T12:52:59.974Z</time></trkpt><trkpt lat="43.7724383" lon="11.2490033"><ele>54.800000000000004</ele><time>2026-04-27T12:53:02.974Z</time></trkpt><trkpt lat="43.7724083" lon="11.2488567"><ele>55.199999999999996</ele><time>2026-04-27T12:53:09.974Z</time></trkpt><trkpt lat="43.7724517" lon="11.2487733"><ele>55.599999999999994</ele><time>2026-04-27T12:53:13.974Z</time></trkpt><trkpt lat="43.7725083" lon="11.24871"><ele>56.0</ele><time>2026-04-27T12:53:16.975Z</time></trkpt><trkpt lat="43.7726617" lon="11.24857"><ele>56.00000000000001</ele><time>2026-04-27T12:53:22.974Z</time></trkpt><trkpt lat="43.772755" lon="11.2485267"><ele>56.0</ele><time>2026-04-27T12:53:24.974Z</time></trkpt><trkpt lat="43.7728083" lon="11.24847"><ele>56.0</ele><time>2026-04-27T12:53:26.974Z</time></trkpt><trkpt lat="43.7728933" lon="11.2483983"><ele>56.0</ele><time>2026-04-27T12:53:28.974Z</time></trkpt><trkpt lat="43.7729783" lon="11.24837"><ele>56.00000000000001</ele><time>2026-04-27T12:53:30.974Z</time></trkpt><trkpt lat="43.7730583" lon="11.24835"><ele>56.0</ele><time>2026-04-27T12:53:32.974Z</time></trkpt><trkpt lat="43.7731183" lon="11.248315"><ele>56.00000000000001</ele><time>2026-04-27T12:53:34.974Z</time></trkpt><trkpt lat="43.7731767" lon="11.2482733"><ele>56.0</ele><time>2026-04-27T12:53:35.974Z</time></trkpt><trkpt lat="43.7732283" lon="11.248165"><ele>56.0</ele><time>2026-04-27T12:53:37.974Z</time></trkpt><trkpt lat="43.7732717" lon="11.2480783"><ele>56.0</ele><time>2026-04-27T12:53:39.974Z</time></trkpt><trkpt lat="43.7732467" lon="11.2479233"><ele>56.00000000000001</ele><time>2026-04-27T12:53:41.974Z</time></trkpt><trkpt lat="43.773275" lon="11.2477967"><ele>56.0</ele><time>2026-04-27T12:53:44.975Z</time></trkpt><trkpt lat="43.7733067" lon="11.2477"><ele>55.66666666666667</ele><time>2026-04-27T12:53:47.974Z</time></trkpt><trkpt lat="43.7733483" lon="11.2476117"><ele>55.333333333333336</ele><time>2026-04-27T12:53:50.974Z</time></trkpt><trkpt lat="43.7733617" lon="11.2475183"><ele>55.0</ele><time>2026-04-27T12:53:53.975Z</time></trkpt><trkpt lat="43.7733467" lon="11.2473917"><ele>54.66666666666667</ele><time>2026-04-27T12:53:55.974Z</time></trkpt><trkpt lat="43.77338" lon="11.2473067"><ele>54.333333333333336</ele><time>2026-04-27T12:53:57.975Z</time></trkpt><trkpt lat="43.7734217" lon="11.2472133"><ele>54.0</ele><time>2026-04-27T12:53:59.974Z</time></trkpt><trkpt lat="43.773415" lon="11.247095"><ele>54.0</ele><time>2026-04-27T12:54:00.974Z</time></trkpt><trkpt lat="43.7734467" lon="11.2469533"><ele>54.00000000000001</ele><time>2026-04-27T12:54:02.974Z</time></trkpt><trkpt lat="43.7735117" lon="11.246835"><ele>54.00000000000001</ele><time>2026-04-27T12:54:04.974Z</time></trkpt><trkpt lat="43.773555" lon="11.2467333"><ele>54.0</ele><time>2026-04-27T12:54:06.974Z</time></trkpt><trkpt lat="43.7735917" lon="11.2466417"><ele>54.0</ele><time>2026-04-27T12:54:08.974Z</time></trkpt><trkpt lat="43.7736667" lon="11.2465517"><ele>54.0</ele><time>2026-04-27T12:54:10.974Z</time></trkpt><trkpt lat="43.7737317" lon="11.246495"><ele>54.0</ele><time>2026-04-27T12:54:12.974Z</time></trkpt><trkpt lat="43.7737833" lon="11.2464433"><ele>54.0</ele><time>2026-04-27T12:54:14.974Z</time></trkpt><trkpt lat="43.7738333" lon="11.2463833"><ele>54.0</ele><time>2026-04-27T12:54:16.974Z</time></trkpt><trkpt lat="43.77388" lon="11.2463133"><ele>54.0</ele><time>2026-04-27T12:54:18.975Z</time></trkpt><trkpt lat="43.7739317" lon="11.2462233"><ele>54.0</ele><time>2026-04-27T12:54:21.975Z</time></trkpt><trkpt lat="43.7739867" lon="11.2461583"><ele>54.0</ele><time>2026-04-27T12:54:24.974Z</time></trkpt><trkpt lat="43.7740267" lon="11.2460667"><ele>53.5</ele><time>2026-04-27T12:54:28.974Z</time></trkpt><trkpt lat="43.774095" lon="11.2459867"><ele>53.0</ele><time>2026-04-27T12:54:31.974Z</time></trkpt><trkpt lat="43.7741017" lon="11.2458883"><ele>52.5</ele><time>2026-04-27T12:54:33.974Z</time></trkpt><trkpt lat="43.7741267" lon="11.2457883"><ele>52.0</ele><time>2026-04-27T12:54:36.975Z</time></trkpt><trkpt lat="43.77412" lon="11.2456867"><ele>51.5</ele><time>2026-04-27T12:54:40.974Z</time></trkpt><trkpt lat="43.7740867" lon="11.24558"><ele>51.0</ele><time>2026-04-27T12:54:43.974Z</time></trkpt><trkpt lat="43.77407" lon="11.2454933"><ele>50.833333333333336</ele><time>2026-04-27T12:54:45.974Z</time></trkpt><trkpt lat="43.7740167" lon="11.2453917"><ele>50.66666666666667</ele><time>2026-04-27T12:54:47.974Z</time></trkpt><trkpt lat="43.7739817" lon="11.2453083"><ele>50.5</ele><time>2026-04-27T12:54:49.975Z</time></trkpt><trkpt lat="43.7739517" lon="11.2451883"><ele>50.333333333333336</ele><time>2026-04-27T12:54:52.974Z</time></trkpt><trkpt lat="43.7739167" lon="11.2451133"><ele>50.16666666666667</ele><time>2026-04-27T12:54:54.974Z</time></trkpt><trkpt lat="43.7739" lon="11.2450283"><ele>50.0</ele><time>2026-04-27T12:54:56.974Z</time></trkpt><trkpt lat="43.7738567" lon="11.24495"><ele>50.00000000000001</ele><time>2026-04-27T12:55:00.975Z</time></trkpt><trkpt lat="43.7737917" lon="11.244915"><ele>50.0</ele><time>2026-04-27T12:55:02.974Z</time></trkpt><trkpt lat="43.773735" lon="11.24486"><ele>50.0</ele><time>2026-04-27T12:55:04.974Z</time></trkpt><trkpt lat="43.7736717" lon="11.2447967"><ele>50.0</ele><time>2026-04-27T12:55:07.974Z</time></trkpt><trkpt lat="43.773585" lon="11.2447717"><ele>50.00000000000001</ele><time>2026-04-27T12:55:09.974Z</time></trkpt><trkpt lat="43.7735417" lon="11.244665"><ele>50.0</ele><time>2026-04-27T12:55:12.974Z</time></trkpt><trkpt lat="43.773555" lon="11.2445783"><ele>50.66666666666667</ele><time>2026-04-27T12:55:14.974Z</time></trkpt><trkpt lat="43.7735867" lon="11.2444533"><ele>51.333333333333336</ele><time>2026-04-27T12:55:17.974Z</time></trkpt><trkpt lat="43.7736417" lon="11.2444067"><ele>52.0</ele><time>2026-04-27T12:55:19.974Z</time></trkpt><trkpt lat="43.7736767" lon="11.2443217"><ele>52.66666666666667</ele><time>2026-04-27T12:55:21.973Z</time></trkpt><trkpt lat="43.7737183" lon="11.2442133"><ele>53.333333333333336</ele><time>2026-04-27T12:55:24.973Z</time></trkpt><trkpt lat="43.7737617" lon="11.2441017"><ele>54.0</ele><time>2026-04-27T12:55:27.973Z</time></trkpt><trkpt lat="43.773795" lon="11.244015"><ele>53.833333333333336</ele><time>2026-04-27T12:55:29.973Z</time></trkpt><trkpt lat="43.7738367" lon="11.2439083"><ele>53.66666666666667</ele><time>2026-04-27T12:55:32.973Z</time></trkpt><trkpt lat="43.773875" lon="11.2438133"><ele>53.5</ele><time>2026-04-27T12:55:35.973Z</time></trkpt><trkpt lat="43.77389" lon="11.2436833"><ele>53.333333333333336</ele><time>2026-04-27T12:55:37.973Z</time></trkpt><trkpt lat="43.7739283" lon="11.24359"><ele>53.16666666666667</ele><time>2026-04-27T12:55:39.973Z</time></trkpt><trkpt lat="43.773985" lon="11.243505"><ele>53.0</ele><time>2026-04-27T12:55:41.973Z</time></trkpt><trkpt lat="43.7740667" lon="11.2434383"><ele>53.0</ele><time>2026-04-27T12:55:44.973Z</time></trkpt><trkpt lat="43.7740933" lon="11.2433517"><ele>53.0</ele><time>2026-04-27T12:55:47.973Z</time></trkpt><trkpt lat="43.7741533" lon="11.2432733"><ele>53.0</ele><time>2026-04-27T12:55:50.973Z</time></trkpt><trkpt lat="43.7742" lon="11.2431533"><ele>53.0</ele><time>2026-04-27T12:55:53.973Z</time></trkpt><trkpt lat="43.7742233" lon="11.2429517"><ele>53.0</ele><time>2026-04-27T12:55:56.974Z</time></trkpt><trkpt lat="43.7742017" lon="11.2428633"><ele>52.85714285714286</ele><time>2026-04-27T12:55:59.973Z</time></trkpt><trkpt lat="43.77417" lon="11.2427817"><ele>52.71428571428571</ele><time>2026-04-27T12:56:02.973Z</time></trkpt><trkpt lat="43.7741783" lon="11.2426733"><ele>52.57142857142857</ele><time>2026-04-27T12:56:05.973Z</time></trkpt><trkpt lat="43.7742083" lon="11.24259"><ele>52.42857142857143</ele><time>2026-04-27T12:56:07.973Z</time></trkpt><trkpt lat="43.7742567" lon="11.242515"><ele>52.28571428571429</ele><time>2026-04-27T12:56:09.973Z</time></trkpt><trkpt lat="43.7743217" lon="11.2424317"><ele>52.14285714285714</ele><time>2026-04-27T12:56:12.973Z</time></trkpt><trkpt lat="43.7743667" lon="11.2423683"><ele>52.0</ele><time>2026-04-27T12:56:14.974Z</time></trkpt><trkpt lat="43.7744117" lon="11.2422867"><ele>51.99999999999999</ele><time>2026-04-27T12:56:17.973Z</time></trkpt><trkpt lat="43.7744583" lon="11.2421817"><ele>52.0</ele><time>2026-04-27T12:56:20.974Z</time></trkpt><trkpt lat="43.7744983" lon="11.24211"><ele>52.0</ele><time>2026-04-27T12:56:22.974Z</time></trkpt><trkpt lat="43.7745567" lon="11.24202"><ele>52.0</ele><time>2026-04-27T12:56:25.973Z</time></trkpt><trkpt lat="43.774585" lon="11.24191"><ele>51.99999999999999</ele><time>2026-04-27T12:56:28.973Z</time></trkpt><trkpt lat="43.7746167" lon="11.2418167"><ele>52.0</ele><time>2026-04-27T12:56:31.973Z</time></trkpt><trkpt lat="43.7746617" lon="11.2417267"><ele>51.99999999999999</ele><time>2026-04-27T12:56:34.973Z</time></trkpt><trkpt lat="43.77473" lon="11.2416467"><ele>52.0</ele><time>2026-04-27T12:56:37.973Z</time></trkpt><trkpt lat="43.7747817" lon="11.24155"><ele>52.0</ele><time>2026-04-27T12:56:40.973Z</time></trkpt><trkpt lat="43.7748617" lon="11.2414683"><ele>52.0</ele><time>2026-04-27T12:56:43.973Z</time></trkpt><trkpt lat="43.7749117" lon="11.2414083"><ele>51.99999999999999</ele><time>2026-04-27T12:56:45.973Z</time></trkpt><trkpt lat="43.774975" lon="11.24135"><ele>52.0</ele><time>2026-04-27T12:56:48.973Z</time></trkpt><trkpt lat="43.7750083" lon="11.241265"><ele>52.33333333333333</ele><time>2026-04-27T12:56:51.973Z</time></trkpt><trkpt lat="43.77503" lon="11.2411783"><ele>52.666666666666664</ele><time>2026-04-27T12:56:53.973Z</time></trkpt><trkpt lat="43.7750567" lon="11.2410983"><ele>53.0</ele><time>2026-04-27T12:56:54.973Z</time></trkpt><trkpt lat="43.77506" lon="11.2408517"><ele>53.33333333333333</ele><time>2026-04-27T12:56:55.973Z</time></trkpt><trkpt lat="43.7750217" lon="11.2407733"><ele>53.666666666666664</ele><time>2026-04-27T12:56:58.973Z</time></trkpt><trkpt lat="43.7749933" lon="11.240695"><ele>54.0</ele><time>2026-04-27T12:57:00.973Z</time></trkpt><trkpt lat="43.774985" lon="11.2405933"><ele>54.0</ele><time>2026-04-27T12:57:03.973Z</time></trkpt><trkpt lat="43.7750367" lon="11.2405417"><ele>54.0</ele><time>2026-04-27T12:57:06.973Z</time></trkpt><trkpt lat="43.775075" lon="11.24047"><ele>54.0</ele><time>2026-04-27T12:57:09.974Z</time></trkpt><trkpt lat="43.7750983" lon="11.2403683"><ele>54.0</ele><time>2026-04-27T12:57:12.973Z</time></trkpt><trkpt lat="43.7751367" lon="11.240285"><ele>54.0</ele><time>2026-04-27T12:57:15.973Z</time></trkpt><trkpt lat="43.7751883" lon="11.2402033"><ele>54.0</ele><time>2026-04-27T12:57:18.973Z</time></trkpt><trkpt lat="43.77524" lon="11.2401167"><ele>54.0</ele><time>2026-04-27T12:57:21.973Z</time></trkpt><trkpt lat="43.7752883" lon="11.2400183"><ele>53.857142857142854</ele><time>2026-04-27T12:57:24.973Z</time></trkpt><trkpt lat="43.7753217" lon="11.23994"><ele>53.71428571428571</ele><time>2026-04-27T12:57:27.973Z</time></trkpt><trkpt lat="43.7753433" lon="11.2398567"><ele>53.57142857142857</ele><time>2026-04-27T12:57:30.974Z</time></trkpt><trkpt lat="43.7753733" lon="11.23977"><ele>53.42857142857143</ele><time>2026-04-27T12:57:33.973Z</time></trkpt><trkpt lat="43.77544" lon="11.2396933"><ele>53.285714285714285</ele><time>2026-04-27T12:57:36.973Z</time></trkpt><trkpt lat="43.7754933" lon="11.23961"><ele>53.142857142857146</ele><time>2026-04-27T12:57:39.973Z</time></trkpt><trkpt lat="43.7755517" lon="11.23953"><ele>53.0</ele><time>2026-04-27T12:57:42.973Z</time></trkpt><trkpt lat="43.7755183" lon="11.239425"><ele>53.00000000000001</ele><time>2026-04-27T12:57:46.973Z</time></trkpt><trkpt lat="43.775465" lon="11.239335"><ele>53.0</ele><time>2026-04-27T12:57:49.973Z</time></trkpt><trkpt lat="43.7754033" lon="11.239285"><ele>53.0</ele><time>2026-04-27T12:57:51.974Z</time></trkpt><trkpt lat="43.775305" lon="11.23925"><ele>53.0</ele><time>2026-04-27T12:57:54.973Z</time></trkpt><trkpt lat="43.775235" lon="11.239225"><ele>53.00000000000001</ele><time>2026-04-27T12:57:56.973Z</time></trkpt><trkpt lat="43.7751633" lon="11.2392083"><ele>53.0</ele><time>2026-04-27T12:57:58.973Z</time></trkpt><trkpt lat="43.7750983" lon="11.2391833"><ele>52.833333333333336</ele><time>2026-04-27T12:58:00.973Z</time></trkpt><trkpt lat="43.77504" lon="11.239145"><ele>52.66666666666667</ele><time>2026-04-27T12:58:02.973Z</time></trkpt><trkpt lat="43.77497" lon="11.23909"><ele>52.5</ele><time>2026-04-27T12:58:05.973Z</time></trkpt><trkpt lat="43.7749783" lon="11.239"><ele>52.33333333333333</ele><time>2026-04-27T12:58:07.973Z</time></trkpt><trkpt lat="43.7749917" lon="11.2388883"><ele>52.166666666666664</ele><time>2026-04-27T12:58:09.973Z</time></trkpt><trkpt lat="43.775015" lon="11.23875"><ele>52.0</ele><time>2026-04-27T12:58:11.973Z</time></trkpt><trkpt lat="43.7750333" lon="11.2385833"><ele>51.99999999999999</ele><time>2026-04-27T12:58:12.973Z</time></trkpt><trkpt lat="43.7750683" lon="11.2385067"><ele>52.0</ele><time>2026-04-27T12:58:14.973Z</time></trkpt><trkpt lat="43.7750967" lon="11.238425"><ele>52.0</ele><time>2026-04-27T12:58:16.973Z</time></trkpt><trkpt lat="43.77511" lon="11.2383217"><ele>52.0</ele><time>2026-04-27T12:58:18.973Z</time></trkpt><trkpt lat="43.7751183" lon="11.2382183"><ele>51.99999999999999</ele><time>2026-04-27T12:58:20.973Z</time></trkpt><trkpt lat="43.77513" lon="11.2381033"><ele>52.0</ele><time>2026-04-27T12:58:23.973Z</time></trkpt><trkpt lat="43.7752067" lon="11.238015"><ele>52.33333333333333</ele><time>2026-04-27T12:58:26.974Z</time></trkpt><trkpt lat="43.7752733" lon="11.2379717"><ele>52.666666666666664</ele><time>2026-04-27T12:58:28.973Z</time></trkpt><trkpt lat="43.7753183" lon="11.2378783"><ele>53.0</ele><time>2026-04-27T12:58:31.973Z</time></trkpt><trkpt lat="43.775305" lon="11.237775"><ele>53.33333333333333</ele><time>2026-04-27T12:58:33.973Z</time></trkpt><trkpt lat="43.7753017" lon="11.2376783"><ele>53.666666666666664</ele><time>2026-04-27T12:58:35.973Z</time></trkpt><trkpt lat="43.7753067" lon="11.2375533"><ele>54.0</ele><time>2026-04-27T12:58:38.973Z</time></trkpt><trkpt lat="43.7753683" lon="11.2374967"><ele>54.0</ele><time>2026-04-27T12:58:40.973Z</time></trkpt><trkpt lat="43.7754483" lon="11.2374367"><ele>54.0</ele><time>2026-04-27T12:58:42.973Z</time></trkpt><trkpt lat="43.7755183" lon="11.2373617"><ele>54.0</ele><time>2026-04-27T12:58:45.973Z</time></trkpt><trkpt lat="43.7755633" lon="11.2372983"><ele>54.0</ele><time>2026-04-27T12:58:47.973Z</time></trkpt><trkpt lat="43.7755917" lon="11.23721"><ele>54.0</ele><time>2026-04-27T12:58:49.973Z</time></trkpt><trkpt lat="43.7756367" lon="11.2371367"><ele>54.0</ele><time>2026-04-27T12:58:51.974Z</time></trkpt><trkpt lat="43.7756483" lon="11.2370483"><ele>54.0</ele><time>2026-04-27T12:58:53.973Z</time></trkpt><trkpt lat="43.775635" lon="11.236925"><ele>52.833333333333336</ele><time>2026-04-27T12:58:56.973Z</time></trkpt><trkpt lat="43.7756767" lon="11.2368367"><ele>51.666666666666664</ele><time>2026-04-27T12:58:59.974Z</time></trkpt><trkpt lat="43.77576" lon="11.2368067"><ele>50.5</ele><time>2026-04-27T12:59:03.973Z</time></trkpt><trkpt lat="43.77582" lon="11.2367267"><ele>49.33333333333333</ele><time>2026-04-27T12:59:06.973Z</time></trkpt><trkpt lat="43.7758317" lon="11.2366083"><ele>48.166666666666664</ele><time>2026-04-27T12:59:09.973Z</time></trkpt><trkpt lat="43.7758617" lon="11.2364883"><ele>47.0</ele><time>2026-04-27T12:59:12.973Z</time></trkpt><trkpt lat="43.7758867" lon="11.2363917"><ele>46.83333333333333</ele><time>2026-04-27T12:59:15.973Z</time></trkpt><trkpt lat="43.7758933" lon="11.2362933"><ele>46.666666666666664</ele><time>2026-04-27T12:59:18.973Z</time></trkpt><trkpt lat="43.7759283" lon="11.2361833"><ele>46.5</ele><time>2026-04-27T12:59:21.973Z</time></trkpt><trkpt lat="43.77597" lon="11.23609"><ele>46.333333333333336</ele><time>2026-04-27T12:59:24.973Z</time></trkpt><trkpt lat="43.7760033" lon="11.2360133"><ele>46.16666666666667</ele><time>2026-04-27T12:59:26.973Z</time></trkpt><trkpt lat="43.7760467" lon="11.2359"><ele>46.0</ele><time>2026-04-27T12:59:29.973Z</time></trkpt><trkpt lat="43.77608" lon="11.2358067"><ele>45.833333333333336</ele><time>2026-04-27T12:59:31.973Z</time></trkpt><trkpt lat="43.7760717" lon="11.2356967"><ele>45.66666666666667</ele><time>2026-04-27T12:59:34.972Z</time></trkpt><trkpt lat="43.7760633" lon="11.2355883"><ele>45.5</ele><time>2026-04-27T12:59:38.972Z</time></trkpt><trkpt lat="43.7760733" lon="11.2354683"><ele>45.333333333333336</ele><time>2026-04-27T12:59:41.972Z</time></trkpt><trkpt lat="43.7760933" lon="11.2353833"><ele>45.166666666666664</ele><time>2026-04-27T12:59:43.972Z</time></trkpt><trkpt lat="43.7761233" lon="11.23526"><ele>45.0</ele><time>2026-04-27T12:59:46.972Z</time></trkpt><trkpt lat="43.776125" lon="11.235135"><ele>44.833333333333336</ele><time>2026-04-27T12:59:49.972Z</time></trkpt><trkpt lat="43.7761033" lon="11.23503"><ele>44.666666666666664</ele><time>2026-04-27T12:59:51.972Z</time></trkpt><trkpt lat="43.77608" lon="11.2349483"><ele>44.5</ele><time>2026-04-27T12:59:53.972Z</time></trkpt><trkpt lat="43.7760467" lon="11.2348383"><ele>44.33333333333333</ele><time>2026-04-27T12:59:56.973Z</time></trkpt><trkpt lat="43.7760167" lon="11.2347583"><ele>44.166666666666664</ele><time>2026-04-27T12:59:58.972Z</time></trkpt><trkpt lat="43.775975" lon="11.2346767"><ele>44.0</ele><time>2026-04-27T13:00:00.972Z</time></trkpt><trkpt lat="43.77592" lon="11.234565"><ele>44.0</ele><time>2026-04-27T13:00:03.973Z</time></trkpt><trkpt lat="43.775885" lon="11.234475"><ele>44.0</ele><time>2026-04-27T13:00:05.972Z</time></trkpt><trkpt lat="43.7758617" lon="11.2343883"><ele>44.0</ele><time>2026-04-27T13:00:07.972Z</time></trkpt><trkpt lat="43.775855" lon="11.2342533"><ele>44.0</ele><time>2026-04-27T13:00:09.972Z</time></trkpt><trkpt lat="43.7758667" lon="11.2341167"><ele>44.0</ele><time>2026-04-27T13:00:11.973Z</time></trkpt><trkpt lat="43.7758783" lon="11.233985"><ele>44.0</ele><time>2026-04-27T13:00:13.972Z</time></trkpt><trkpt lat="43.7758767" lon="11.2338667"><ele>43.83333333333333</ele><time>2026-04-27T13:00:15.972Z</time></trkpt><trkpt lat="43.7758983" lon="11.233755"><ele>43.666666666666664</ele><time>2026-04-27T13:00:17.972Z</time></trkpt><trkpt lat="43.7759317" lon="11.2336617"><ele>43.5</ele><time>2026-04-27T13:00:19.972Z</time></trkpt><trkpt lat="43.775955" lon="11.233565"><ele>43.333333333333336</ele><time>2026-04-27T13:00:21.972Z</time></trkpt><trkpt lat="43.775985" lon="11.2334617"><ele>43.16666666666667</ele><time>2026-04-27T13:00:23.972Z</time></trkpt><trkpt lat="43.7760083" lon="11.2333467"><ele>43.0</ele><time>2026-04-27T13:00:25.972Z</time></trkpt><trkpt lat="43.77604" lon="11.2332383"><ele>43.5</ele><time>2026-04-27T13:00:27.972Z</time></trkpt><trkpt lat="43.7760783" lon="11.2331417"><ele>44.0</ele><time>2026-04-27T13:00:29.972Z</time></trkpt><trkpt lat="43.7761083" lon="11.2330367"><ele>44.5</ele><time>2026-04-27T13:00:31.972Z</time></trkpt><trkpt lat="43.7761417" lon="11.23295"><ele>45.0</ele><time>2026-04-27T13:00:33.972Z</time></trkpt><trkpt lat="43.7761683" lon="11.2328533"><ele>45.5</ele><time>2026-04-27T13:00:35.972Z</time></trkpt><trkpt lat="43.776215" lon="11.2327367"><ele>46.0</ele><time>2026-04-27T13:00:38.972Z</time></trkpt><trkpt lat="43.776245" lon="11.2326383"><ele>46.285714285714285</ele><time>2026-04-27T13:00:40.972Z</time></trkpt><trkpt lat="43.776265" lon="11.2325267"><ele>46.57142857142857</ele><time>2026-04-27T13:00:42.972Z</time></trkpt><trkpt lat="43.776285" lon="11.2324167"><ele>46.857142857142854</ele><time>2026-04-27T13:00:44.972Z</time></trkpt><trkpt lat="43.7763133" lon="11.2323233"><ele>47.14285714285714</ele><time>2026-04-27T13:00:46.972Z</time></trkpt><trkpt lat="43.7763333" lon="11.23224"><ele>47.42857142857143</ele><time>2026-04-27T13:00:48.972Z</time></trkpt><trkpt lat="43.7763617" lon="11.2321533"><ele>47.71428571428571</ele><time>2026-04-27T13:00:50.972Z</time></trkpt><trkpt lat="43.77639" lon="11.2320683"><ele>48.0</ele><time>2026-04-27T13:00:52.972Z</time></trkpt><trkpt lat="43.7764117" lon="11.2319767"><ele>48.0</ele><time>2026-04-27T13:00:54.972Z</time></trkpt><trkpt lat="43.7764283" lon="11.2318717"><ele>48.0</ele><time>2026-04-27T13:00:56.972Z</time></trkpt><trkpt lat="43.776455" lon="11.231775"><ele>48.0</ele><time>2026-04-27T13:00:58.972Z</time></trkpt><trkpt lat="43.7764817" lon="11.2316717"><ele>48.0</ele><time>2026-04-27T13:01:00.973Z</time></trkpt><trkpt lat="43.7765083" lon="11.2315783"><ele>48.0</ele><time>2026-04-27T13:01:02.972Z</time></trkpt><trkpt lat="43.776545" lon="11.2314833"><ele>48.0</ele><time>2026-04-27T13:01:04.972Z</time></trkpt><trkpt lat="43.7765667" lon="11.2313767"><ele>47.333333333333336</ele><time>2026-04-27T13:01:06.972Z</time></trkpt><trkpt lat="43.7765983" lon="11.2312967"><ele>46.666666666666664</ele><time>2026-04-27T13:01:08.972Z</time></trkpt><trkpt lat="43.77663" lon="11.2312067"><ele>46.0</ele><time>2026-04-27T13:01:10.972Z</time></trkpt><trkpt lat="43.7766517" lon="11.2310967"><ele>45.33333333333333</ele><time>2026-04-27T13:01:12.972Z</time></trkpt><trkpt lat="43.7766883" lon="11.23099"><ele>44.666666666666664</ele><time>2026-04-27T13:01:14.972Z</time></trkpt><trkpt lat="43.776715" lon="11.2308883"><ele>44.0</ele><time>2026-04-27T13:01:16.972Z</time></trkpt><trkpt lat="43.7767317" lon="11.2307917"><ele>44.0</ele><time>2026-04-27T13:01:18.972Z</time></trkpt><trkpt lat="43.77676" lon="11.2307033"><ele>44.0</ele><time>2026-04-27T13:01:20.972Z</time></trkpt><trkpt lat="43.776785" lon="11.2306183"><ele>44.0</ele><time>2026-04-27T13:01:22.972Z</time></trkpt><trkpt lat="43.7768267" lon="11.2305067"><ele>44.0</ele><time>2026-04-27T13:01:25.972Z</time></trkpt><trkpt lat="43.7768633" lon="11.23041"><ele>44.0</ele><time>2026-04-27T13:01:28.972Z</time></trkpt><trkpt lat="43.776885" lon="11.2303083"><ele>44.0</ele><time>2026-04-27T13:01:31.972Z</time></trkpt><trkpt lat="43.7769317" lon="11.230215"><ele>43.666666666666664</ele><time>2026-04-27T13:01:35.972Z</time></trkpt><trkpt lat="43.7769567" lon="11.23012"><ele>43.33333333333333</ele><time>2026-04-27T13:01:38.973Z</time></trkpt><trkpt lat="43.7769667" lon="11.2300083"><ele>43.0</ele><time>2026-04-27T13:01:41.972Z</time></trkpt><trkpt lat="43.7769517" lon="11.2298883"><ele>42.666666666666664</ele><time>2026-04-27T13:01:44.972Z</time></trkpt><trkpt lat="43.7768967" lon="11.2298"><ele>42.333333333333336</ele><time>2026-04-27T13:01:47.972Z</time></trkpt><trkpt lat="43.7768383" lon="11.22974"><ele>42.0</ele><time>2026-04-27T13:01:50.972Z</time></trkpt><trkpt lat="43.776785" lon="11.2296883"><ele>42.0</ele><time>2026-04-27T13:01:52.972Z</time></trkpt><trkpt lat="43.7767217" lon="11.22964"><ele>42.0</ele><time>2026-04-27T13:01:55.972Z</time></trkpt><trkpt lat="43.7766517" lon="11.229595"><ele>42.0</ele><time>2026-04-27T13:01:58.972Z</time></trkpt><trkpt lat="43.7765767" lon="11.2295383"><ele>42.0</ele><time>2026-04-27T13:02:01.972Z</time></trkpt><trkpt lat="43.7765183" lon="11.2294917"><ele>42.0</ele><time>2026-04-27T13:02:04.972Z</time></trkpt><trkpt lat="43.7764567" lon="11.2294383"><ele>42.0</ele><time>2026-04-27T13:02:07.972Z</time></trkpt><trkpt lat="43.7763983" lon="11.2293883"><ele>42.0</ele><time>2026-04-27T13:02:10.972Z</time></trkpt><trkpt lat="43.7763317" lon="11.2293333"><ele>42.0</ele><time>2026-04-27T13:02:13.972Z</time></trkpt><trkpt lat="43.776275" lon="11.2292917"><ele>42.0</ele><time>2026-04-27T13:02:16.972Z</time></trkpt><trkpt lat="43.7762133" lon="11.2292517"><ele>42.0</ele><time>2026-04-27T13:02:19.972Z</time></trkpt><trkpt lat="43.7761367" lon="11.2291917"><ele>42.0</ele><time>2026-04-27T13:02:22.972Z</time></trkpt><trkpt lat="43.77608" lon="11.2291483"><ele>42.0</ele><time>2026-04-27T13:02:24.972Z</time></trkpt><trkpt lat="43.7760133" lon="11.229085"><ele>42.0</ele><time>2026-04-27T13:02:26.972Z</time></trkpt><trkpt lat="43.7759517" lon="11.2290217"><ele>42.0</ele><time>2026-04-27T13:02:28.972Z</time></trkpt><trkpt lat="43.775895" lon="11.22893"><ele>42.2</ele><time>2026-04-27T13:02:30.972Z</time></trkpt><trkpt lat="43.7758983" lon="11.2288167"><ele>42.400000000000006</ele><time>2026-04-27T13:02:32.972Z</time></trkpt><trkpt lat="43.7759283" lon="11.22871"><ele>42.599999999999994</ele><time>2026-04-27T13:02:34.972Z</time></trkpt><trkpt lat="43.77596" lon="11.2285817"><ele>42.8</ele><time>2026-04-27T13:02:36.972Z</time></trkpt><trkpt lat="43.7759983" lon="11.22844"><ele>43.0</ele><time>2026-04-27T13:02:38.972Z</time></trkpt><trkpt lat="43.7760317" lon="11.2283"><ele>43.0</ele><time>2026-04-27T13:02:40.972Z</time></trkpt><trkpt lat="43.776065" lon="11.228185"><ele>43.0</ele><time>2026-04-27T13:02:42.972Z</time></trkpt><trkpt lat="43.776105" lon="11.2280783"><ele>43.0</ele><time>2026-04-27T13:02:44.973Z</time></trkpt><trkpt lat="43.7761483" lon="11.227985"><ele>43.0</ele><time>2026-04-27T13:02:46.972Z</time></trkpt><trkpt lat="43.7761983" lon="11.2278817"><ele>43.0</ele><time>2026-04-27T13:02:49.972Z</time></trkpt><trkpt lat="43.7762333" lon="11.227775"><ele>43.0</ele><time>2026-04-27T13:02:52.972Z</time></trkpt><trkpt lat="43.7762733" lon="11.2276483"><ele>43.0</ele><time>2026-04-27T13:02:55.972Z</time></trkpt><trkpt lat="43.7763083" lon="11.227555"><ele>43.0</ele><time>2026-04-27T13:02:57.972Z</time></trkpt><trkpt lat="43.77634" lon="11.22746"><ele>43.0</ele><time>2026-04-27T13:02:59.972Z</time></trkpt><trkpt lat="43.776375" lon="11.2273633"><ele>43.0</ele><time>2026-04-27T13:03:01.972Z</time></trkpt><trkpt lat="43.7763967" lon="11.2272633"><ele>43.0</ele><time>2026-04-27T13:03:03.972Z</time></trkpt><trkpt lat="43.7764167" lon="11.2271667"><ele>43.0</ele><time>2026-04-27T13:03:05.972Z</time></trkpt><trkpt lat="43.77644" lon="11.227055"><ele>43.0</ele><time>2026-04-27T13:03:07.972Z</time></trkpt><trkpt lat="43.7764567" lon="11.2269567"><ele>43.0</ele><time>2026-04-27T13:03:09.972Z</time></trkpt><trkpt lat="43.77649" lon="11.226855"><ele>43.0</ele><time>2026-04-27T13:03:11.972Z</time></trkpt><trkpt lat="43.7765083" lon="11.226745"><ele>43.0</ele><time>2026-04-27T13:03:13.973Z</time></trkpt><trkpt lat="43.776535" lon="11.2266417"><ele>43.0</ele><time>2026-04-27T13:03:15.972Z</time></trkpt><trkpt lat="43.7765783" lon="11.2265433"><ele>43.0</ele><time>2026-04-27T13:03:17.972Z</time></trkpt><trkpt lat="43.7766017" lon="11.2264467"><ele>43.0</ele><time>2026-04-27T13:03:19.972Z</time></trkpt><trkpt lat="43.776635" lon="11.226345"><ele>43.0</ele><time>2026-04-27T13:03:21.972Z</time></trkpt><trkpt lat="43.7766717" lon="11.2262467"><ele>43.0</ele><time>2026-04-27T13:03:23.972Z</time></trkpt><trkpt lat="43.7767017" lon="11.2261483"><ele>43.0</ele><time>2026-04-27T13:03:25.972Z</time></trkpt><trkpt lat="43.7767333" lon="11.2260417"><ele>43.0</ele><time>2026-04-27T13:03:27.973Z</time></trkpt><trkpt lat="43.7767683" lon="11.22594"><ele>43.0</ele><time>2026-04-27T13:03:29.973Z</time></trkpt><trkpt lat="43.7768033" lon="11.2258617"><ele>43.0</ele><time>2026-04-27T13:03:31.972Z</time></trkpt><trkpt lat="43.77683" lon="11.2257667"><ele>43.0</ele><time>2026-04-27T13:03:33.972Z</time></trkpt><trkpt lat="43.7768767" lon="11.2256667"><ele>43.0</ele><time>2026-04-27T13:03:35.972Z</time></trkpt><trkpt lat="43.77691" lon="11.2255617"><ele>43.0</ele><time>2026-04-27T13:03:37.972Z</time></trkpt><trkpt lat="43.7769367" lon="11.22545"><ele>43.0</ele><time>2026-04-27T13:03:39.972Z</time></trkpt><trkpt lat="43.7769783" lon="11.22535"><ele>43.0</ele><time>2026-04-27T13:03:41.972Z</time></trkpt><trkpt lat="43.7770183" lon="11.22525"><ele>42.833333333333336</ele><time>2026-04-27T13:03:43.971Z</time></trkpt><trkpt lat="43.77704" lon="11.2251217"><ele>42.66666666666667</ele><time>2026-04-27T13:03:46.971Z</time></trkpt><trkpt lat="43.7770567" lon="11.2250333"><ele>42.5</ele><time>2026-04-27T13:03:48.971Z</time></trkpt><trkpt lat="43.7770833" lon="11.2249417"><ele>42.333333333333336</ele><time>2026-04-27T13:03:50.971Z</time></trkpt><trkpt lat="43.777115" lon="11.22485"><ele>42.166666666666664</ele><time>2026-04-27T13:03:52.971Z</time></trkpt><trkpt lat="43.777155" lon="11.2247567"><ele>42.0</ele><time>2026-04-27T13:03:54.971Z</time></trkpt><trkpt lat="43.7771917" lon="11.2246583"><ele>41.5</ele><time>2026-04-27T13:03:56.971Z</time></trkpt><trkpt lat="43.7772217" lon="11.224565"><ele>41.0</ele><time>2026-04-27T13:03:58.971Z</time></trkpt><trkpt lat="43.7772417" lon="11.2244717"><ele>40.5</ele><time>2026-04-27T13:04:00.971Z</time></trkpt><trkpt lat="43.7772483" lon="11.2243567"><ele>40.0</ele><time>2026-04-27T13:04:03.971Z</time></trkpt><trkpt lat="43.7772667" lon="11.2242717"><ele>39.5</ele><time>2026-04-27T13:04:05.971Z</time></trkpt><trkpt lat="43.777285" lon="11.224175"><ele>39.0</ele><time>2026-04-27T13:04:07.971Z</time></trkpt><trkpt lat="43.777325" lon="11.2240667"><ele>39.666666666666664</ele><time>2026-04-27T13:04:10.971Z</time></trkpt><trkpt lat="43.77735" lon="11.2239767"><ele>40.333333333333336</ele><time>2026-04-27T13:04:12.971Z</time></trkpt><trkpt lat="43.7773467" lon="11.2238733"><ele>41.0</ele><time>2026-04-27T13:04:15.971Z</time></trkpt><trkpt lat="43.777355" lon="11.223755"><ele>41.66666666666667</ele><time>2026-04-27T13:04:18.972Z</time></trkpt><trkpt lat="43.7773833" lon="11.223665"><ele>42.333333333333336</ele><time>2026-04-27T13:04:21.971Z</time></trkpt><trkpt lat="43.7774167" lon="11.223575"><ele>43.0</ele><time>2026-04-27T13:04:23.971Z</time></trkpt><trkpt lat="43.7774467" lon="11.2234533"><ele>43.0</ele><time>2026-04-27T13:04:26.971Z</time></trkpt><trkpt lat="43.7774717" lon="11.2233683"><ele>43.0</ele><time>2026-04-27T13:04:28.971Z</time></trkpt><trkpt lat="43.777505" lon="11.2232533"><ele>43.0</ele><time>2026-04-27T13:04:31.971Z</time></trkpt><trkpt lat="43.7775367" lon="11.2231617"><ele>43.0</ele><time>2026-04-27T13:04:33.971Z</time></trkpt><trkpt lat="43.7775883" lon="11.22306"><ele>43.0</ele><time>2026-04-27T13:04:35.971Z</time></trkpt><trkpt lat="43.77764" lon="11.22295"><ele>43.0</ele><time>2026-04-27T13:04:37.971Z</time></trkpt><trkpt lat="43.777685" lon="11.2228633"><ele>43.5</ele><time>2026-04-27T13:04:39.971Z</time></trkpt><trkpt lat="43.7777283" lon="11.2227533"><ele>44.0</ele><time>2026-04-27T13:04:41.971Z</time></trkpt><trkpt lat="43.77777" lon="11.222675"><ele>44.5</ele><time>2026-04-27T13:04:43.971Z</time></trkpt><trkpt lat="43.7778067" lon="11.22257"><ele>45.0</ele><time>2026-04-27T13:04:46.972Z</time></trkpt><trkpt lat="43.7778417" lon="11.2224717"><ele>45.5</ele><time>2026-04-27T13:04:49.971Z</time></trkpt><trkpt lat="43.7778633" lon="11.222375"><ele>46.0</ele><time>2026-04-27T13:04:52.971Z</time></trkpt><trkpt lat="43.777895" lon="11.22224"><ele>46.0</ele><time>2026-04-27T13:04:55.971Z</time></trkpt><trkpt lat="43.7779217" lon="11.2221517"><ele>46.0</ele><time>2026-04-27T13:04:57.971Z</time></trkpt><trkpt lat="43.7779583" lon="11.22205"><ele>46.0</ele><time>2026-04-27T13:04:59.971Z</time></trkpt><trkpt lat="43.7779933" lon="11.2219617"><ele>46.0</ele><time>2026-04-27T13:05:01.971Z</time></trkpt><trkpt lat="43.7780167" lon="11.2218283"><ele>46.0</ele><time>2026-04-27T13:05:04.971Z</time></trkpt><trkpt lat="43.7780433" lon="11.2217317"><ele>46.0</ele><time>2026-04-27T13:05:06.971Z</time></trkpt><trkpt lat="43.7780667" lon="11.2216433"><ele>46.0</ele><time>2026-04-27T13:05:08.971Z</time></trkpt><trkpt lat="43.77809" lon="11.2215383"><ele>46.0</ele><time>2026-04-27T13:05:10.972Z</time></trkpt><trkpt lat="43.7781233" lon="11.2214483"><ele>46.0</ele><time>2026-04-27T13:05:12.971Z</time></trkpt><trkpt lat="43.7781583" lon="11.2213433"><ele>46.0</ele><time>2026-04-27T13:05:14.971Z</time></trkpt><trkpt lat="43.778195" lon="11.221245"><ele>46.0</ele><time>2026-04-27T13:05:16.971Z</time></trkpt><trkpt lat="43.77823" lon="11.2211567"><ele>46.0</ele><time>2026-04-27T13:05:18.971Z</time></trkpt><trkpt lat="43.778265" lon="11.2210767"><ele>46.0</ele><time>2026-04-27T13:05:20.971Z</time></trkpt><trkpt lat="43.778295" lon="11.2209933"><ele>46.0</ele><time>2026-04-27T13:05:22.971Z</time></trkpt><trkpt lat="43.7783267" lon="11.22091"><ele>46.0</ele><time>2026-04-27T13:05:24.971Z</time></trkpt><trkpt lat="43.778355" lon="11.2208317"><ele>46.0</ele><time>2026-04-27T13:05:26.971Z</time></trkpt><trkpt lat="43.77839" lon="11.2207583"><ele>46.0</ele><time>2026-04-27T13:05:28.971Z</time></trkpt><trkpt lat="43.77843" lon="11.2206767"><ele>46.0</ele><time>2026-04-27T13:05:30.971Z</time></trkpt><trkpt lat="43.7784633" lon="11.2205833"><ele>46.0</ele><time>2026-04-27T13:05:32.971Z</time></trkpt><trkpt lat="43.7784983" lon="11.220495"><ele>45.42857142857143</ele><time>2026-04-27T13:05:34.971Z</time></trkpt><trkpt lat="43.7785217" lon="11.2204083"><ele>44.857142857142854</ele><time>2026-04-27T13:05:36.971Z</time></trkpt><trkpt lat="43.7785367" lon="11.2203183"><ele>44.285714285714285</ele><time>2026-04-27T13:05:38.971Z</time></trkpt><trkpt lat="43.7785483" lon="11.22023"><ele>43.714285714285715</ele><time>2026-04-27T13:05:40.971Z</time></trkpt><trkpt lat="43.7785733" lon="11.2201267"><ele>43.14285714285714</ele><time>2026-04-27T13:05:42.971Z</time></trkpt><trkpt lat="43.7786133" lon="11.2200333"><ele>42.57142857142857</ele><time>2026-04-27T13:05:44.972Z</time></trkpt><trkpt lat="43.77865" lon="11.2199267"><ele>42.0</ele><time>2026-04-27T13:05:46.971Z</time></trkpt><trkpt lat="43.7787" lon="11.2198283"><ele>41.857142857142854</ele><time>2026-04-27T13:05:48.971Z</time></trkpt><trkpt lat="43.77873" lon="11.21974"><ele>41.714285714285715</ele><time>2026-04-27T13:05:50.971Z</time></trkpt><trkpt lat="43.77877" lon="11.2196483"><ele>41.57142857142857</ele><time>2026-04-27T13:05:52.971Z</time></trkpt><trkpt lat="43.7788083" lon="11.2195367"><ele>41.42857142857143</ele><time>2026-04-27T13:05:55.971Z</time></trkpt><trkpt lat="43.778845" lon="11.21946"><ele>41.285714285714285</ele><time>2026-04-27T13:05:57.971Z</time></trkpt><trkpt lat="43.7788783" lon="11.21938"><ele>41.14285714285714</ele><time>2026-04-27T13:05:59.972Z</time></trkpt><trkpt lat="43.778915" lon="11.2192933"><ele>41.0</ele><time>2026-04-27T13:06:01.971Z</time></trkpt><trkpt lat="43.778935" lon="11.2192083"><ele>41.0</ele><time>2026-04-27T13:06:03.971Z</time></trkpt><trkpt lat="43.778965" lon="11.2190933"><ele>41.0</ele><time>2026-04-27T13:06:06.971Z</time></trkpt><trkpt lat="43.7790017" lon="11.2189767"><ele>41.0</ele><time>2026-04-27T13:06:09.971Z</time></trkpt><trkpt lat="43.7790367" lon="11.21889"><ele>41.0</ele><time>2026-04-27T13:06:11.971Z</time></trkpt><trkpt lat="43.7790867" lon="11.2187917"><ele>41.0</ele><time>2026-04-27T13:06:13.971Z</time></trkpt><trkpt lat="43.77914" lon="11.21873"><ele>41.0</ele><time>2026-04-27T13:06:15.971Z</time></trkpt><trkpt lat="43.779215" lon="11.21866"><ele>41.166666666666664</ele><time>2026-04-27T13:06:17.971Z</time></trkpt><trkpt lat="43.7792733" lon="11.2185533"><ele>41.33333333333333</ele><time>2026-04-27T13:06:19.972Z</time></trkpt><trkpt lat="43.77933" lon="11.2184483"><ele>41.5</ele><time>2026-04-27T13:06:21.971Z</time></trkpt><trkpt lat="43.7793567" lon="11.2183567"><ele>41.666666666666664</ele><time>2026-04-27T13:06:23.971Z</time></trkpt><trkpt lat="43.7794" lon="11.218275"><ele>41.833333333333336</ele><time>2026-04-27T13:06:25.971Z</time></trkpt><trkpt lat="43.7794333" lon="11.2181933"><ele>42.0</ele><time>2026-04-27T13:06:27.971Z</time></trkpt><trkpt lat="43.779465" lon="11.2181133"><ele>41.714285714285715</ele><time>2026-04-27T13:06:29.971Z</time></trkpt><trkpt lat="43.7794883" lon="11.2180283"><ele>41.42857142857143</ele><time>2026-04-27T13:06:31.971Z</time></trkpt><trkpt lat="43.7795183" lon="11.2179467"><ele>41.14285714285714</ele><time>2026-04-27T13:06:33.971Z</time></trkpt><trkpt lat="43.7795767" lon="11.217845"><ele>40.85714285714286</ele><time>2026-04-27T13:06:36.971Z</time></trkpt><trkpt lat="43.7796233" lon="11.2177817"><ele>40.57142857142857</ele><time>2026-04-27T13:06:38.971Z</time></trkpt><trkpt lat="43.7796567" lon="11.2176917"><ele>40.285714285714285</ele><time>2026-04-27T13:06:40.971Z</time></trkpt><trkpt lat="43.779665" lon="11.2176033"><ele>40.0</ele><time>2026-04-27T13:06:42.971Z</time></trkpt><trkpt lat="43.7796767" lon="11.2174967"><ele>40.0</ele><time>2026-04-27T13:06:45.971Z</time></trkpt><trkpt lat="43.7797183" lon="11.2173933"><ele>40.0</ele><time>2026-04-27T13:06:48.971Z</time></trkpt><trkpt lat="43.7797317" lon="11.2172817"><ele>40.0</ele><time>2026-04-27T13:06:51.971Z</time></trkpt><trkpt lat="43.779725" lon="11.2171933"><ele>40.0</ele><time>2026-04-27T13:06:54.971Z</time></trkpt><trkpt lat="43.7797283" lon="11.217075"><ele>40.0</ele><time>2026-04-27T13:06:58.971Z</time></trkpt><trkpt lat="43.7797483" lon="11.216975"><ele>40.0</ele><time>2026-04-27T13:07:01.971Z</time></trkpt><trkpt lat="43.7797683" lon="11.216885"><ele>40.16666666666667</ele><time>2026-04-27T13:07:03.971Z</time></trkpt><trkpt lat="43.779795" lon="11.21676"><ele>40.333333333333336</ele><time>2026-04-27T13:07:06.971Z</time></trkpt><trkpt lat="43.7798317" lon="11.2166617"><ele>40.5</ele><time>2026-04-27T13:07:08.971Z</time></trkpt><trkpt lat="43.7798817" lon="11.2165667"><ele>40.666666666666664</ele><time>2026-04-27T13:07:10.971Z</time></trkpt><trkpt lat="43.7799283" lon="11.2164783"><ele>40.83333333333333</ele><time>2026-04-27T13:07:12.971Z</time></trkpt><trkpt lat="43.7799733" lon="11.2163867"><ele>41.0</ele><time>2026-04-27T13:07:14.971Z</time></trkpt><trkpt lat="43.7800183" lon="11.2162833"><ele>41.285714285714285</ele><time>2026-04-27T13:07:16.971Z</time></trkpt><trkpt lat="43.7800467" lon="11.2161933"><ele>41.57142857142857</ele><time>2026-04-27T13:07:18.971Z</time></trkpt><trkpt lat="43.7800717" lon="11.2161083"><ele>41.85714285714286</ele><time>2026-04-27T13:07:20.971Z</time></trkpt><trkpt lat="43.7801067" lon="11.21601"><ele>42.14285714285714</ele><time>2026-04-27T13:07:22.971Z</time></trkpt><trkpt lat="43.780125" lon="11.2159067"><ele>42.42857142857143</ele><time>2026-04-27T13:07:24.971Z</time></trkpt><trkpt lat="43.7801517" lon="11.2158117"><ele>42.714285714285715</ele><time>2026-04-27T13:07:26.971Z</time></trkpt><trkpt lat="43.78018" lon="11.2157283"><ele>43.0</ele><time>2026-04-27T13:07:28.972Z</time></trkpt><trkpt lat="43.7802217" lon="11.2156183"><ele>42.199999999999996</ele><time>2026-04-27T13:07:30.971Z</time></trkpt><trkpt lat="43.7802667" lon="11.21552"><ele>41.4</ele><time>2026-04-27T13:07:32.971Z</time></trkpt><trkpt lat="43.7803267" lon="11.2154067"><ele>40.599999999999994</ele><time>2026-04-27T13:07:34.972Z</time></trkpt><trkpt lat="43.78039" lon="11.2152917"><ele>39.8</ele><time>2026-04-27T13:07:36.971Z</time></trkpt><trkpt lat="43.780445" lon="11.2151983"><ele>39.0</ele><time>2026-04-27T13:07:38.971Z</time></trkpt><trkpt lat="43.78052" lon="11.215075"><ele>39.0</ele><time>2026-04-27T13:07:40.97Z</time></trkpt><trkpt lat="43.7805883" lon="11.21496"><ele>39.0</ele><time>2026-04-27T13:07:42.97Z</time></trkpt><trkpt lat="43.7806533" lon="11.2148617"><ele>39.0</ele><time>2026-04-27T13:07:44.97Z</time></trkpt><trkpt lat="43.7806967" lon="11.214775"><ele>39.0</ele><time>2026-04-27T13:07:46.97Z</time></trkpt><trkpt lat="43.780745" lon="11.2146933"><ele>39.0</ele><time>2026-04-27T13:07:48.97Z</time></trkpt><trkpt lat="43.7807867" lon="11.21461"><ele>39.0</ele><time>2026-04-27T13:07:50.97Z</time></trkpt><trkpt lat="43.7808333" lon="11.2145083"><ele>39.142857142857146</ele><time>2026-04-27T13:07:53.97Z</time></trkpt><trkpt lat="43.7808667" lon="11.2144317"><ele>39.285714285714285</ele><time>2026-04-27T13:07:55.97Z</time></trkpt><trkpt lat="43.7809067" lon="11.2143633"><ele>39.42857142857143</ele><time>2026-04-27T13:07:57.97Z</time></trkpt><trkpt lat="43.7809517" lon="11.2142983"><ele>39.57142857142857</ele><time>2026-04-27T13:07:59.97Z</time></trkpt><trkpt lat="43.7809867" lon="11.214225"><ele>39.714285714285715</ele><time>2026-04-27T13:08:01.97Z</time></trkpt><trkpt lat="43.781035" lon="11.21412"><ele>39.857142857142854</ele><time>2026-04-27T13:08:04.97Z</time></trkpt><trkpt lat="43.78107" lon="11.214045"><ele>40.0</ele><time>2026-04-27T13:08:06.97Z</time></trkpt><trkpt lat="43.78112" lon="11.2139517"><ele>39.333333333333336</ele><time>2026-04-27T13:08:09.971Z</time></trkpt><trkpt lat="43.7811733" lon="11.2138617"><ele>38.66666666666667</ele><time>2026-04-27T13:08:12.97Z</time></trkpt><trkpt lat="43.7812333" lon="11.2138033"><ele>38.0</ele><time>2026-04-27T13:08:15.97Z</time></trkpt><trkpt lat="43.781275" lon="11.213725"><ele>37.333333333333336</ele><time>2026-04-27T13:08:18.97Z</time></trkpt><trkpt lat="43.7813217" lon="11.2136367"><ele>36.666666666666664</ele><time>2026-04-27T13:08:21.97Z</time></trkpt><trkpt lat="43.7813733" lon="11.2135317"><ele>36.0</ele><time>2026-04-27T13:08:24.97Z</time></trkpt><trkpt lat="43.7814167" lon="11.213435"><ele>36.0</ele><time>2026-04-27T13:08:27.97Z</time></trkpt><trkpt lat="43.7814533" lon="11.2133417"><ele>36.0</ele><time>2026-04-27T13:08:30.97Z</time></trkpt><trkpt lat="43.7814983" lon="11.2132367"><ele>36.0</ele><time>2026-04-27T13:08:33.97Z</time></trkpt><trkpt lat="43.78153" lon="11.2131533"><ele>36.0</ele><time>2026-04-27T13:08:36.97Z</time></trkpt><trkpt lat="43.7815717" lon="11.2130483"><ele>36.0</ele><time>2026-04-27T13:08:39.97Z</time></trkpt><trkpt lat="43.781615" lon="11.21298"><ele>36.0</ele><time>2026-04-27T13:08:41.97Z</time></trkpt><trkpt lat="43.7816483" lon="11.2128683"><ele>36.5</ele><time>2026-04-27T13:08:44.97Z</time></trkpt><trkpt lat="43.781705" lon="11.2127733"><ele>37.0</ele><time>2026-04-27T13:08:47.97Z</time></trkpt><trkpt lat="43.7817667" lon="11.2127183"><ele>37.5</ele><time>2026-04-27T13:08:50.97Z</time></trkpt><trkpt lat="43.7818117" lon="11.2126467"><ele>38.0</ele><time>2026-04-27T13:08:53.97Z</time></trkpt><trkpt lat="43.7818533" lon="11.212555"><ele>38.5</ele><time>2026-04-27T13:08:56.97Z</time></trkpt><trkpt lat="43.7818933" lon="11.212465"><ele>39.0</ele><time>2026-04-27T13:08:58.97Z</time></trkpt><trkpt lat="43.7819367" lon="11.2123583"><ele>38.0</ele><time>2026-04-27T13:09:00.97Z</time></trkpt><trkpt lat="43.781975" lon="11.2122483"><ele>37.0</ele><time>2026-04-27T13:09:02.971Z</time></trkpt><trkpt lat="43.7820133" lon="11.21214"><ele>36.0</ele><time>2026-04-27T13:09:04.97Z</time></trkpt><trkpt lat="43.7820617" lon="11.2120417"><ele>35.0</ele><time>2026-04-27T13:09:06.97Z</time></trkpt><trkpt lat="43.7820983" lon="11.2119383"><ele>34.0</ele><time>2026-04-27T13:09:08.97Z</time></trkpt><trkpt lat="43.7821417" lon="11.211865"><ele>33.0</ele><time>2026-04-27T13:09:10.97Z</time></trkpt><trkpt lat="43.7821783" lon="11.2117917"><ele>33.0</ele><time>2026-04-27T13:09:12.97Z</time></trkpt><trkpt lat="43.7822017" lon="11.2117017"><ele>33.0</ele><time>2026-04-27T13:09:14.97Z</time></trkpt><trkpt lat="43.782245" lon="11.21161"><ele>33.0</ele><time>2026-04-27T13:09:16.97Z</time></trkpt><trkpt lat="43.78229" lon="11.2115033"><ele>33.0</ele><time>2026-04-27T13:09:18.97Z</time></trkpt><trkpt lat="43.7823417" lon="11.2113883"><ele>33.0</ele><time>2026-04-27T13:09:20.97Z</time></trkpt><trkpt lat="43.78238" lon="11.21128"><ele>33.0</ele><time>2026-04-27T13:09:22.97Z</time></trkpt><trkpt lat="43.7824217" lon="11.2111583"><ele>33.333333333333336</ele><time>2026-04-27T13:09:24.97Z</time></trkpt><trkpt lat="43.7824467" lon="11.211055"><ele>33.666666666666664</ele><time>2026-04-27T13:09:26.97Z</time></trkpt><trkpt lat="43.78248" lon="11.21095"><ele>34.0</ele><time>2026-04-27T13:09:28.97Z</time></trkpt><trkpt lat="43.78253" lon="11.2108717"><ele>34.33333333333333</ele><time>2026-04-27T13:09:30.97Z</time></trkpt><trkpt lat="43.782575" lon="11.2107983"><ele>34.666666666666664</ele><time>2026-04-27T13:09:32.971Z</time></trkpt><trkpt lat="43.782625" lon="11.210725"><ele>35.0</ele><time>2026-04-27T13:09:34.97Z</time></trkpt><trkpt lat="43.7826817" lon="11.2106333"><ele>35.0</ele><time>2026-04-27T13:09:36.97Z</time></trkpt><trkpt lat="43.78273" lon="11.2105417"><ele>35.0</ele><time>2026-04-27T13:09:38.97Z</time></trkpt><trkpt lat="43.78278" lon="11.2104567"><ele>35.0</ele><time>2026-04-27T13:09:40.97Z</time></trkpt><trkpt lat="43.7828267" lon="11.21036"><ele>35.0</ele><time>2026-04-27T13:09:42.97Z</time></trkpt><trkpt lat="43.7828667" lon="11.2102533"><ele>35.0</ele><time>2026-04-27T13:09:44.97Z</time></trkpt><trkpt lat="43.782905" lon="11.210155"><ele>35.0</ele><time>2026-04-27T13:09:46.97Z</time></trkpt><trkpt lat="43.7829267" lon="11.21006"><ele>35.0</ele><time>2026-04-27T13:09:48.97Z</time></trkpt><trkpt lat="43.7829667" lon="11.2099567"><ele>35.0</ele><time>2026-04-27T13:09:50.97Z</time></trkpt><trkpt lat="43.783025" lon="11.2098567"><ele>35.0</ele><time>2026-04-27T13:09:52.97Z</time></trkpt><trkpt lat="43.78308" lon="11.2097867"><ele>35.0</ele><time>2026-04-27T13:09:54.97Z</time></trkpt><trkpt lat="43.78314" lon="11.2096883"><ele>35.0</ele><time>2026-04-27T13:09:56.97Z</time></trkpt><trkpt lat="43.7831833" lon="11.2095867"><ele>35.0</ele><time>2026-04-27T13:09:58.97Z</time></trkpt><trkpt lat="43.78323" lon="11.2094833"><ele>35.666666666666664</ele><time>2026-04-27T13:10:00.97Z</time></trkpt><trkpt lat="43.783275" lon="11.2093867"><ele>36.33333333333333</ele><time>2026-04-27T13:10:02.97Z</time></trkpt><trkpt lat="43.783295" lon="11.2092817"><ele>37.0</ele><time>2026-04-27T13:10:04.97Z</time></trkpt><trkpt lat="43.783325" lon="11.2091633"><ele>37.666666666666664</ele><time>2026-04-27T13:10:06.97Z</time></trkpt><trkpt lat="43.7833533" lon="11.209065"><ele>38.333333333333336</ele><time>2026-04-27T13:10:08.97Z</time></trkpt><trkpt lat="43.783365" lon="11.20894"><ele>39.0</ele><time>2026-04-27T13:10:11.971Z</time></trkpt><trkpt lat="43.7833833" lon="11.2088433"><ele>39.333333333333336</ele><time>2026-04-27T13:10:13.97Z</time></trkpt><trkpt lat="43.7834117" lon="11.2087617"><ele>39.666666666666664</ele><time>2026-04-27T13:10:15.97Z</time></trkpt><trkpt lat="43.783445" lon="11.2086833"><ele>40.0</ele><time>2026-04-27T13:10:17.97Z</time></trkpt><trkpt lat="43.7834917" lon="11.20859"><ele>40.33333333333333</ele><time>2026-04-27T13:10:19.97Z</time></trkpt><trkpt lat="43.7835383" lon="11.208485"><ele>40.666666666666664</ele><time>2026-04-27T13:10:21.97Z</time></trkpt><trkpt lat="43.783585" lon="11.20839"><ele>41.0</ele><time>2026-04-27T13:10:23.971Z</time></trkpt><trkpt lat="43.7836217" lon="11.2083083"><ele>40.5</ele><time>2026-04-27T13:10:25.97Z</time></trkpt><trkpt lat="43.7836467" lon="11.208205"><ele>40.0</ele><time>2026-04-27T13:10:28.97Z</time></trkpt><trkpt lat="43.7836683" lon="11.2080933"><ele>39.5</ele><time>2026-04-27T13:10:32.97Z</time></trkpt><trkpt lat="43.78371" lon="11.2079983"><ele>39.0</ele><time>2026-04-27T13:10:35.971Z</time></trkpt><trkpt lat="43.7837467" lon="11.2079267"><ele>38.5</ele><time>2026-04-27T13:10:37.97Z</time></trkpt><trkpt lat="43.783785" lon="11.20785"><ele>38.0</ele><time>2026-04-27T13:10:39.97Z</time></trkpt><trkpt lat="43.7838333" lon="11.2077667"><ele>38.0</ele><time>2026-04-27T13:10:41.97Z</time></trkpt><trkpt lat="43.7838717" lon="11.2076717"><ele>38.0</ele><time>2026-04-27T13:10:43.97Z</time></trkpt><trkpt lat="43.783915" lon="11.207565"><ele>38.0</ele><time>2026-04-27T13:10:45.97Z</time></trkpt><trkpt lat="43.7839533" lon="11.2074867"><ele>38.0</ele><time>2026-04-27T13:10:47.971Z</time></trkpt><trkpt lat="43.784" lon="11.207395"><ele>38.0</ele><time>2026-04-27T13:10:49.97Z</time></trkpt><trkpt lat="43.7840433" lon="11.2073183"><ele>38.0</ele><time>2026-04-27T13:10:51.97Z</time></trkpt><trkpt lat="43.784095" lon="11.2072233"><ele>37.83333333333333</ele><time>2026-04-27T13:10:53.97Z</time></trkpt><trkpt lat="43.7841367" lon="11.207125"><ele>37.666666666666664</ele><time>2026-04-27T13:10:55.97Z</time></trkpt><trkpt lat="43.7841867" lon="11.2070317"><ele>37.5</ele><time>2026-04-27T13:10:57.97Z</time></trkpt><trkpt lat="43.78423" lon="11.2069417"><ele>37.333333333333336</ele><time>2026-04-27T13:10:59.971Z</time></trkpt><trkpt lat="43.78428" lon="11.2068383"><ele>37.16666666666667</ele><time>2026-04-27T13:11:01.97Z</time></trkpt><trkpt lat="43.7843217" lon="11.2067467"><ele>37.0</ele><time>2026-04-27T13:11:03.97Z</time></trkpt><trkpt lat="43.78435" lon="11.2066583"><ele>37.0</ele><time>2026-04-27T13:11:05.97Z</time></trkpt><trkpt lat="43.7844" lon="11.206565"><ele>37.0</ele><time>2026-04-27T13:11:07.97Z</time></trkpt><trkpt lat="43.7844533" lon="11.20646"><ele>37.0</ele><time>2026-04-27T13:11:09.97Z</time></trkpt><trkpt lat="43.7845083" lon="11.2063617"><ele>37.0</ele><time>2026-04-27T13:11:11.97Z</time></trkpt><trkpt lat="43.7845483" lon="11.206265"><ele>37.0</ele><time>2026-04-27T13:11:13.97Z</time></trkpt><trkpt lat="43.7845917" lon="11.206165"><ele>37.0</ele><time>2026-04-27T13:11:15.97Z</time></trkpt><trkpt lat="43.7846567" lon="11.2060533"><ele>37.333333333333336</ele><time>2026-04-27T13:11:17.97Z</time></trkpt><trkpt lat="43.7847117" lon="11.2059567"><ele>37.66666666666667</ele><time>2026-04-27T13:11:19.971Z</time></trkpt><trkpt lat="43.78475" lon="11.2058467"><ele>38.0</ele><time>2026-04-27T13:11:21.97Z</time></trkpt><trkpt lat="43.7848017" lon="11.2057567"><ele>38.333333333333336</ele><time>2026-04-27T13:11:23.97Z</time></trkpt><trkpt lat="43.7848367" lon="11.2056817"><ele>38.666666666666664</ele><time>2026-04-27T13:11:25.97Z</time></trkpt><trkpt lat="43.7848717" lon="11.205605"><ele>39.0</ele><time>2026-04-27T13:11:27.97Z</time></trkpt><trkpt lat="43.7849117" lon="11.2055133"><ele>39.0</ele><time>2026-04-27T13:11:29.97Z</time></trkpt><trkpt lat="43.7849533" lon="11.2054167"><ele>39.0</ele><time>2026-04-27T13:11:31.971Z</time></trkpt><trkpt lat="43.7850017" lon="11.2052983"><ele>39.0</ele><time>2026-04-27T13:11:33.97Z</time></trkpt><trkpt lat="43.78505" lon="11.2051883"><ele>39.0</ele><time>2026-04-27T13:11:35.97Z</time></trkpt><trkpt lat="43.78509" lon="11.2050933"><ele>39.0</ele><time>2026-04-27T13:11:37.97Z</time></trkpt><trkpt lat="43.785095" lon="11.2049867"><ele>39.0</ele><time>2026-04-27T13:11:40.97Z</time></trkpt><trkpt lat="43.7850167" lon="11.2049033"><ele>39.0</ele><time>2026-04-27T13:11:43.969Z</time></trkpt><trkpt lat="43.7849317" lon="11.2048633"><ele>39.0</ele><time>2026-04-27T13:11:45.969Z</time></trkpt><trkpt lat="43.7848467" lon="11.204855"><ele>39.0</ele><time>2026-04-27T13:11:47.969Z</time></trkpt><trkpt lat="43.7847617" lon="11.20484"><ele>39.0</ele><time>2026-04-27T13:11:49.969Z</time></trkpt><trkpt lat="43.78468" lon="11.2047917"><ele>39.0</ele><time>2026-04-27T13:11:51.969Z</time></trkpt><trkpt lat="43.7845783" lon="11.2047383"><ele>39.2</ele><time>2026-04-27T13:11:53.969Z</time></trkpt><trkpt lat="43.78448" lon="11.2047033"><ele>39.4</ele><time>2026-04-27T13:11:55.969Z</time></trkpt><trkpt lat="43.784385" lon="11.2046717"><ele>39.6</ele><time>2026-04-27T13:11:57.969Z</time></trkpt><trkpt lat="43.784305" lon="11.204655"><ele>39.8</ele><time>2026-04-27T13:11:59.969Z</time></trkpt><trkpt lat="43.78421" lon="11.20461"><ele>40.0</ele><time>2026-04-27T13:12:01.97Z</time></trkpt><trkpt lat="43.78411" lon="11.2045733"><ele>40.0</ele><time>2026-04-27T13:12:03.969Z</time></trkpt><trkpt lat="43.7840067" lon="11.2045267"><ele>40.0</ele><time>2026-04-27T13:12:05.969Z</time></trkpt><trkpt lat="43.7839183" lon="11.2045033"><ele>40.0</ele><time>2026-04-27T13:12:07.969Z</time></trkpt><trkpt lat="43.7838317" lon="11.2044667"><ele>40.0</ele><time>2026-04-27T13:12:09.969Z</time></trkpt><trkpt lat="43.783755" lon="11.20444"><ele>40.0</ele><time>2026-04-27T13:12:11.969Z</time></trkpt><trkpt lat="43.7836733" lon="11.2044033"><ele>40.0</ele><time>2026-04-27T13:12:13.969Z</time></trkpt><trkpt lat="43.7835983" lon="11.2043433"><ele>40.0</ele><time>2026-04-27T13:12:15.97Z</time></trkpt><trkpt lat="43.7835017" lon="11.204295"><ele>40.0</ele><time>2026-04-27T13:12:17.969Z</time></trkpt><trkpt lat="43.7833983" lon="11.2042583"><ele>40.0</ele><time>2026-04-27T13:12:19.97Z</time></trkpt><trkpt lat="43.7833083" lon="11.2042033"><ele>40.0</ele><time>2026-04-27T13:12:21.969Z</time></trkpt><trkpt lat="43.7832233" lon="11.2041867"><ele>40.0</ele><time>2026-04-27T13:12:23.969Z</time></trkpt><trkpt lat="43.7831267" lon="11.2041583"><ele>40.0</ele><time>2026-04-27T13:12:25.969Z</time></trkpt><trkpt lat="43.7830317" lon="11.2041483"><ele>40.0</ele><time>2026-04-27T13:12:27.969Z</time></trkpt><trkpt lat="43.7829483" lon="11.2041217"><ele>40.0</ele><time>2026-04-27T13:12:29.969Z</time></trkpt><trkpt lat="43.7828517" lon="11.204095"><ele>40.0</ele><time>2026-04-27T13:12:31.969Z</time></trkpt><trkpt lat="43.7827733" lon="11.2040667"><ele>40.0</ele><time>2026-04-27T13:12:33.97Z</time></trkpt><trkpt lat="43.782705" lon="11.204035"><ele>40.0</ele><time>2026-04-27T13:12:35.969Z</time></trkpt><trkpt lat="43.7826367" lon="11.2040033"><ele>40.0</ele><time>2026-04-27T13:12:37.969Z</time></trkpt><trkpt lat="43.782565" lon="11.2039733"><ele>40.0</ele><time>2026-04-27T13:12:39.969Z</time></trkpt><trkpt lat="43.78247" lon="11.2039617"><ele>40.0</ele><time>2026-04-27T13:12:42.969Z</time></trkpt><trkpt lat="43.782405" lon="11.20395"><ele>40.0</ele><time>2026-04-27T13:12:44.969Z</time></trkpt><trkpt lat="43.7823283" lon="11.2039633"><ele>39.833333333333336</ele><time>2026-04-27T13:12:46.969Z</time></trkpt><trkpt lat="43.78229" lon="11.2040533"><ele>39.66666666666667</ele><time>2026-04-27T13:12:48.97Z</time></trkpt><trkpt lat="43.7822583" lon="11.204165"><ele>39.5</ele><time>2026-04-27T13:12:50.969Z</time></trkpt><trkpt lat="43.7822433" lon="11.204265"><ele>39.333333333333336</ele><time>2026-04-27T13:12:52.969Z</time></trkpt><trkpt lat="43.7822283" lon="11.204375"><ele>39.166666666666664</ele><time>2026-04-27T13:12:54.97Z</time></trkpt><trkpt lat="43.7822033" lon="11.2044933"><ele>39.0</ele><time>2026-04-27T13:12:56.969Z</time></trkpt><trkpt lat="43.78218" lon="11.204605"><ele>39.0</ele><time>2026-04-27T13:12:58.969Z</time></trkpt><trkpt lat="43.7821583" lon="11.2046917"><ele>39.0</ele><time>2026-04-27T13:13:00.969Z</time></trkpt><trkpt lat="43.782135" lon="11.2047883"><ele>39.0</ele><time>2026-04-27T13:13:03.969Z</time></trkpt><trkpt lat="43.7820683" lon="11.2047567"><ele>39.0</ele><time>2026-04-27T13:13:08.969Z</time></trkpt><trkpt lat="43.782055" lon="11.20466"><ele>39.0</ele><time>2026-04-27T13:13:10.969Z</time></trkpt><trkpt lat="43.78203" lon="11.2045633"><ele>39.0</ele><time>2026-04-27T13:13:13.969Z</time></trkpt><trkpt lat="43.7819533" lon="11.20456"><ele>39.0</ele><time>2026-04-27T13:13:17.969Z</time></trkpt><trkpt lat="43.7818767" lon="11.2045667"><ele>39.0</ele><time>2026-04-27T13:13:20.969Z</time></trkpt><trkpt lat="43.7818067" lon="11.20454"><ele>39.0</ele><time>2026-04-27T13:13:23.969Z</time></trkpt><trkpt lat="43.78176" lon="11.2044783"><ele>39.0</ele><time>2026-04-27T13:13:25.97Z</time></trkpt><trkpt lat="43.781685" lon="11.2044617"><ele>39.0</ele><time>2026-04-27T13:13:29.97Z</time></trkpt><trkpt lat="43.7816017" lon="11.20447"><ele>39.0</ele><time>2026-04-27T13:13:32.969Z</time></trkpt><trkpt lat="43.7815233" lon="11.2044917"><ele>39.0</ele><time>2026-04-27T13:13:35.969Z</time></trkpt><trkpt lat="43.7814517" lon="11.20452"><ele>39.0</ele><time>2026-04-27T13:13:37.97Z</time></trkpt><trkpt lat="43.7813767" lon="11.204535"><ele>39.0</ele><time>2026-04-27T13:13:39.969Z</time></trkpt><trkpt lat="43.78129" lon="11.2045433"><ele>39.0</ele><time>2026-04-27T13:13:41.969Z</time></trkpt><trkpt lat="43.78121" lon="11.20454"><ele>39.0</ele><time>2026-04-27T13:13:43.969Z</time></trkpt><trkpt lat="43.7811067" lon="11.2045267"><ele>39.0</ele><time>2026-04-27T13:13:45.97Z</time></trkpt><trkpt lat="43.7810233" lon="11.2045233"><ele>39.0</ele><time>2026-04-27T13:13:47.969Z</time></trkpt><trkpt lat="43.78094" lon="11.2045217"><ele>38.833333333333336</ele><time>2026-04-27T13:13:49.969Z</time></trkpt><trkpt lat="43.78086" lon="11.2045267"><ele>38.666666666666664</ele><time>2026-04-27T13:13:51.969Z</time></trkpt><trkpt lat="43.78078" lon="11.2045333"><ele>38.5</ele><time>2026-04-27T13:13:53.969Z</time></trkpt><trkpt lat="43.780705" lon="11.2045467"><ele>38.33333333333333</ele><time>2026-04-27T13:13:55.969Z</time></trkpt><trkpt lat="43.7806267" lon="11.204575"><ele>38.166666666666664</ele><time>2026-04-27T13:13:57.969Z</time></trkpt><trkpt lat="43.780515" lon="11.2046133"><ele>38.0</ele><time>2026-04-27T13:13:59.969Z</time></trkpt><trkpt lat="43.7804533" lon="11.2046467"><ele>38.0</ele><time>2026-04-27T13:14:00.969Z</time></trkpt><trkpt lat="43.78034" lon="11.2047017"><ele>38.0</ele><time>2026-04-27T13:14:02.969Z</time></trkpt><trkpt lat="43.78024" lon="11.204765"><ele>38.0</ele><time>2026-04-27T13:14:04.969Z</time></trkpt><trkpt lat="43.7801667" lon="11.2047867"><ele>38.0</ele><time>2026-04-27T13:14:06.969Z</time></trkpt><trkpt lat="43.7800933" lon="11.2047967"><ele>38.0</ele><time>2026-04-27T13:14:08.969Z</time></trkpt><trkpt lat="43.7800317" lon="11.2048183"><ele>38.0</ele><time>2026-04-27T13:14:10.969Z</time></trkpt><trkpt lat="43.77997" lon="11.204855"><ele>38.0</ele><time>2026-04-27T13:14:12.969Z</time></trkpt><trkpt lat="43.7799033" lon="11.2048867"><ele>38.0</ele><time>2026-04-27T13:14:14.969Z</time></trkpt><trkpt lat="43.779835" lon="11.2049017"><ele>38.0</ele><time>2026-04-27T13:14:16.969Z</time></trkpt><trkpt lat="43.77976" lon="11.2048883"><ele>38.0</ele><time>2026-04-27T13:14:18.969Z</time></trkpt><trkpt lat="43.7796683" lon="11.2048817"><ele>38.0</ele><time>2026-04-27T13:14:21.969Z</time></trkpt><trkpt lat="43.7796217" lon="11.2047733"><ele>38.0</ele><time>2026-04-27T13:14:24.969Z</time></trkpt><trkpt lat="43.7796267" lon="11.20464"><ele>38.0</ele><time>2026-04-27T13:14:27.969Z</time></trkpt><trkpt lat="43.7796117" lon="11.20453"><ele>38.0</ele><time>2026-04-27T13:14:29.969Z</time></trkpt><trkpt lat="43.7795917" lon="11.2044133"><ele>38.0</ele><time>2026-04-27T13:14:31.969Z</time></trkpt><trkpt lat="43.7795717" lon="11.2043017"><ele>38.0</ele><time>2026-04-27T13:14:33.969Z</time></trkpt><trkpt lat="43.77957" lon="11.2041867"><ele>38.0</ele><time>2026-04-27T13:14:35.969Z</time></trkpt><trkpt lat="43.7795833" lon="11.204095"><ele>38.0</ele><time>2026-04-27T13:14:37.969Z</time></trkpt><trkpt lat="43.77961" lon="11.2040017"><ele>38.33333333333333</ele><time>2026-04-27T13:14:39.969Z</time></trkpt><trkpt lat="43.7796233" lon="11.2039117"><ele>38.666666666666664</ele><time>2026-04-27T13:14:41.969Z</time></trkpt><trkpt lat="43.7796267" lon="11.2037917"><ele>39.0</ele><time>2026-04-27T13:14:44.969Z</time></trkpt><trkpt lat="43.779645" lon="11.2036917"><ele>39.333333333333336</ele><time>2026-04-27T13:14:47.969Z</time></trkpt><trkpt lat="43.77965" lon="11.203565"><ele>39.66666666666667</ele><time>2026-04-27T13:14:51.969Z</time></trkpt><trkpt lat="43.7796667" lon="11.2034717"><ele>40.0</ele><time>2026-04-27T13:14:54.969Z</time></trkpt><trkpt lat="43.7797217" lon="11.2033883"><ele>40.0</ele><time>2026-04-27T13:14:57.969Z</time></trkpt><trkpt lat="43.7797567" lon="11.203285"><ele>40.0</ele><time>2026-04-27T13:15:00.969Z</time></trkpt><trkpt lat="43.7797767" lon="11.2032017"><ele>40.0</ele><time>2026-04-27T13:15:02.969Z</time></trkpt><trkpt lat="43.7797983" lon="11.2030983"><ele>40.0</ele><time>2026-04-27T13:15:04.969Z</time></trkpt><trkpt lat="43.7798217" lon="11.20299"><ele>40.0</ele><time>2026-04-27T13:15:06.97Z</time></trkpt><trkpt lat="43.7798267" lon="11.202885"><ele>40.0</ele><time>2026-04-27T13:15:08.97Z</time></trkpt><trkpt lat="43.7798317" lon="11.2027883"><ele>40.0</ele><time>2026-04-27T13:15:10.969Z</time></trkpt><trkpt lat="43.7798517" lon="11.2026983"><ele>40.0</ele><time>2026-04-27T13:15:12.969Z</time></trkpt><trkpt lat="43.7798767" lon="11.2026"><ele>40.0</ele><time>2026-04-27T13:15:14.969Z</time></trkpt><trkpt lat="43.7799" lon="11.2024983"><ele>40.0</ele><time>2026-04-27T13:15:16.969Z</time></trkpt><trkpt lat="43.7799167" lon="11.2024083"><ele>40.0</ele><time>2026-04-27T13:15:18.97Z</time></trkpt><trkpt lat="43.77994" lon="11.2023083"><ele>40.0</ele><time>2026-04-27T13:15:20.969Z</time></trkpt><trkpt lat="43.77996" lon="11.20221"><ele>40.0</ele><time>2026-04-27T13:15:22.969Z</time></trkpt><trkpt lat="43.77999" lon="11.2021133"><ele>40.16666666666667</ele><time>2026-04-27T13:15:24.969Z</time></trkpt><trkpt lat="43.780025" lon="11.2020067"><ele>40.333333333333336</ele><time>2026-04-27T13:15:26.969Z</time></trkpt><trkpt lat="43.78004" lon="11.2018983"><ele>40.5</ele><time>2026-04-27T13:15:28.969Z</time></trkpt><trkpt lat="43.7800233" lon="11.2017817"><ele>40.666666666666664</ele><time>2026-04-27T13:15:31.969Z</time></trkpt><trkpt lat="43.780015" lon="11.20168"><ele>40.83333333333333</ele><time>2026-04-27T13:15:34.969Z</time></trkpt><trkpt lat="43.779945" lon="11.2016267"><ele>41.0</ele><time>2026-04-27T13:15:38.969Z</time></trkpt><trkpt lat="43.77988" lon="11.2015917"><ele>41.0</ele><time>2026-04-27T13:15:40.969Z</time></trkpt><trkpt lat="43.7798" lon="11.201535"><ele>41.0</ele><time>2026-04-27T13:15:42.969Z</time></trkpt><trkpt lat="43.7797383" lon="11.2015"><ele>41.0</ele><time>2026-04-27T13:15:44.968Z</time></trkpt><trkpt lat="43.779665" lon="11.20145"><ele>41.0</ele><time>2026-04-27T13:15:46.968Z</time></trkpt><trkpt lat="43.779605" lon="11.2014017"><ele>41.0</ele><time>2026-04-27T13:15:48.968Z</time></trkpt><trkpt lat="43.779515" lon="11.2013683"><ele>41.0</ele><time>2026-04-27T13:15:50.969Z</time></trkpt><trkpt lat="43.7794283" lon="11.2013367"><ele>40.83333333333333</ele><time>2026-04-27T13:15:52.968Z</time></trkpt><trkpt lat="43.7793533" lon="11.201315"><ele>40.666666666666664</ele><time>2026-04-27T13:15:54.968Z</time></trkpt><trkpt lat="43.7792833" lon="11.2012983"><ele>40.5</ele><time>2026-04-27T13:15:56.968Z</time></trkpt><trkpt lat="43.7791917" lon="11.20124"><ele>40.333333333333336</ele><time>2026-04-27T13:15:58.968Z</time></trkpt><trkpt lat="43.7791033" lon="11.20118"><ele>40.16666666666667</ele><time>2026-04-27T13:16:00.968Z</time></trkpt><trkpt lat="43.779025" lon="11.2011083"><ele>40.0</ele><time>2026-04-27T13:16:02.968Z</time></trkpt><trkpt lat="43.7789783" lon="11.2010467"><ele>40.0</ele><time>2026-04-27T13:16:04.968Z</time></trkpt><trkpt lat="43.7789217" lon="11.20097"><ele>40.0</ele><time>2026-04-27T13:16:06.968Z</time></trkpt><trkpt lat="43.77887" lon="11.2009067"><ele>40.0</ele><time>2026-04-27T13:16:08.968Z</time></trkpt><trkpt lat="43.7788183" lon="11.2008483"><ele>40.0</ele><time>2026-04-27T13:16:10.968Z</time></trkpt><trkpt lat="43.7787567" lon="11.200765"><ele>40.0</ele><time>2026-04-27T13:16:12.968Z</time></trkpt><trkpt lat="43.778685" lon="11.200725"><ele>40.0</ele><time>2026-04-27T13:16:15.968Z</time></trkpt><trkpt lat="43.77863" lon="11.2006667"><ele>40.0</ele><time>2026-04-27T13:16:19.969Z</time></trkpt><trkpt lat="43.77858" lon="11.2005833"><ele>40.0</ele><time>2026-04-27T13:16:24.968Z</time></trkpt><trkpt lat="43.7784967" lon="11.2005867"><ele>40.0</ele><time>2026-04-27T13:16:28.968Z</time></trkpt><trkpt lat="43.7784583" lon="11.20066"><ele>40.0</ele><time>2026-04-27T13:16:34.968Z</time></trkpt><trkpt lat="43.7783933" lon="11.2006733"><ele>40.0</ele><time>2026-04-27T13:16:38.968Z</time></trkpt><trkpt lat="43.7783317" lon="11.2006483"><ele>40.0</ele><time>2026-04-27T13:16:41.968Z</time></trkpt><trkpt lat="43.7782717" lon="11.2006033"><ele>40.0</ele><time>2026-04-27T13:16:46.968Z</time></trkpt><trkpt lat="43.7782033" lon="11.2005533"><ele>40.0</ele><time>2026-04-27T13:17:48.968Z</time></trkpt><trkpt lat="43.7781833" lon="11.20046"><ele>40.0</ele><time>2026-04-27T13:17:56.968Z</time></trkpt><trkpt lat="43.7780817" lon="11.2002983"><ele>40.0</ele><time>2026-04-27T13:18:04.968Z</time></trkpt><trkpt lat="43.7780783" lon="11.2001967"><ele>40.0</ele><time>2026-04-27T13:18:07.968Z</time></trkpt><trkpt lat="43.7780433" lon="11.2001217"><ele>40.0</ele><time>2026-04-27T13:18:14.968Z</time></trkpt><trkpt lat="43.778105" lon="11.2001517"><ele>40.0</ele><time>2026-04-27T13:18:26.968Z</time></trkpt><trkpt lat="43.77804" lon="11.200175"><ele>40.0</ele><time>2026-04-27T13:19:09.968Z</time></trkpt><trkpt lat="43.7779567" lon="11.2001"><ele>40.0</ele><time>2026-04-27T13:20:44.976Z</time></trkpt><trkpt lat="43.7779" lon="11.20014"><ele>40.0</ele><time>2026-04-27T13:23:38.975Z</time></trkpt><trkpt lat="43.7779483" lon="11.2001983"><ele>40.0</ele><time>2026-04-27T13:23:52.975Z</time></trkpt><trkpt lat="43.7780533" lon="11.200125"><ele>40.0</ele><time>2026-04-27T13:28:32.974Z</time></trkpt><trkpt lat="43.7779867" lon="11.20012"><ele>40.0</ele><time>2026-04-27T13:31:35.973Z</time></trkpt><trkpt lat="43.7780417" lon="11.2000683"><ele>40.0</ele><time>2026-04-27T13:31:48.973Z</time></trkpt><trkpt lat="43.7779833" lon="11.2001867"><ele>40.0</ele><time>2026-04-27T13:32:05.973Z</time></trkpt></trkseg></trk></gpx>